<?xml version="1.0" encoding="UTF-8" standalone="no" ?>
<gpx xmlns="http://www.topografix.com/GPX/1/1" xmlns:xsi="http://www.w3.org/2001/XMLSchema-instance" xsi:schemaLocation="http://www.topografix.com/GPX/1/1 http://www.topografix.com/GPX/1/1/gpx.xsd" version="1.1" creator="VisuGPX - https://www.visugpx.com">
  <metadata>
    <name>Edirne-Zagreb</name>
  </metadata>
  <trk>
    <name><![CDATA[3bis_Dubrovnik à Sarajevo_272km (Ćiro)_5days - Jour 5 - De Konjic à Drvenija]]></name>
    <extensions>
      <line xmlns="http://www.topografix.com/GPX/gpx_style/0/2">
        <color>008888</color>
        <width>4</width>
      </line>
    </extensions>
    <trkseg>
      <trkpt lat="43.65108" lon="17.96201">
        <ele>281.728094</ele>
        <time>2022-05-17T19:09:51.584Z</time>
      </trkpt>
      <trkpt lat="43.65096" lon="17.96208">
        <ele>281.728094</ele>
        <time>2022-05-17T19:09:58.458Z</time>
      </trkpt>
      <trkpt lat="43.651" lon="17.96229">
        <ele>281.728094</ele>
        <time>2022-05-17T19:10:09.113Z</time>
      </trkpt>
      <trkpt lat="43.6512" lon="17.96312">
        <ele>281.801154</ele>
        <time>2022-05-17T19:10:50.663Z</time>
      </trkpt>
      <trkpt lat="43.65122" lon="17.96325">
        <ele>282.083504</ele>
        <time>2022-05-17T19:10:57.507Z</time>
      </trkpt>
      <trkpt lat="43.65123" lon="17.96333">
        <ele>282.241005</ele>
        <time>2022-05-17T19:11:01.373Z</time>
      </trkpt>
      <trkpt lat="43.6514" lon="17.96332">
        <ele>282.747314</ele>
        <time>2022-05-17T19:11:09.632Z</time>
      </trkpt>
      <trkpt lat="43.65188" lon="17.96337">
        <ele>284.109862</ele>
        <time>2022-05-17T19:11:34.707Z</time>
      </trkpt>
      <trkpt lat="43.65203" lon="17.9634">
        <ele>284.560965</ele>
        <time>2022-05-17T19:11:42.856Z</time>
      </trkpt>
      <trkpt lat="43.65209" lon="17.9634">
        <ele>284.732572</ele>
        <time>2022-05-17T19:11:45.561Z</time>
      </trkpt>
      <trkpt lat="43.65255" lon="17.96332">
        <ele>286.050854</ele>
        <time>2022-05-17T19:12:05.891Z</time>
      </trkpt>
      <trkpt lat="43.65331" lon="17.96296">
        <ele>288.824725</ele>
        <time>2022-05-17T19:12:33.300Z</time>
      </trkpt>
      <trkpt lat="43.65341" lon="17.96291">
        <ele>289.197716</ele>
        <time>2022-05-17T19:12:36.986Z</time>
      </trkpt>
      <trkpt lat="43.65379" lon="17.96282">
        <ele>290.638939</ele>
        <time>2022-05-17T19:12:51.703Z</time>
      </trkpt>
      <trkpt lat="43.65417" lon="17.96285">
        <ele>292.092416</ele>
        <time>2022-05-17T19:13:14.021Z</time>
      </trkpt>
      <trkpt lat="43.65424" lon="17.96287">
        <ele>292.34055</ele>
        <time>2022-05-17T19:13:18.482Z</time>
      </trkpt>
      <trkpt lat="43.65457" lon="17.96295">
        <ele>293.614736</ele>
        <time>2022-05-17T19:13:44.592Z</time>
      </trkpt>
      <trkpt lat="43.65488" lon="17.96295">
        <ele>296.378173</ele>
        <time>2022-05-17T19:14:11.442Z</time>
      </trkpt>
      <trkpt lat="43.65514" lon="17.96288">
        <ele>298.679243</ele>
        <time>2022-05-17T19:14:33.662Z</time>
      </trkpt>
      <trkpt lat="43.6552" lon="17.96298">
        <ele>299.519347</ele>
        <time>2022-05-17T19:14:43.515Z</time>
      </trkpt>
      <trkpt lat="43.65573" lon="17.96365">
        <ele>305.857052</ele>
        <time>2022-05-17T19:15:46.527Z</time>
      </trkpt>
      <trkpt lat="43.65579" lon="17.96372">
        <ele>306.509755</ele>
        <time>2022-05-17T19:15:51.849Z</time>
      </trkpt>
      <trkpt lat="43.65623" lon="17.96429">
        <ele>310.53438</ele>
        <time>2022-05-17T19:16:35.235Z</time>
      </trkpt>
      <trkpt lat="43.65658" lon="17.96522">
        <ele>313.383426</ele>
        <time>2022-05-17T19:17:19.540Z</time>
      </trkpt>
      <trkpt lat="43.6568" lon="17.96565">
        <ele>314.818354</ele>
        <time>2022-05-17T19:17:33.287Z</time>
      </trkpt>
      <trkpt lat="43.65704" lon="17.966">
        <ele>316.140713</ele>
        <time>2022-05-17T19:17:44.574Z</time>
      </trkpt>
      <trkpt lat="43.65948" lon="17.96926">
        <ele>321.446018</ele>
        <time>2022-05-17T19:20:02.889Z</time>
      </trkpt>
      <trkpt lat="43.66001" lon="17.97038">
        <ele>321.904006</ele>
        <time>2022-05-17T19:20:36.375Z</time>
      </trkpt>
      <trkpt lat="43.66035" lon="17.97089">
        <ele>321.970556</ele>
        <time>2022-05-17T19:20:50.206Z</time>
      </trkpt>
      <trkpt lat="43.66049" lon="17.97103">
        <ele>321.992612</ele>
        <time>2022-05-17T19:20:55.710Z</time>
      </trkpt>
      <trkpt lat="43.66091" lon="17.97136">
        <ele>322.02057</ele>
        <time>2022-05-17T19:21:11.281Z</time>
      </trkpt>
      <trkpt lat="43.66123" lon="17.97162">
        <ele>321.892532</ele>
        <time>2022-05-17T19:21:23.023Z</time>
      </trkpt>
      <trkpt lat="43.66146" lon="17.97189">
        <ele>321.78944</ele>
        <time>2022-05-17T19:21:31.983Z</time>
      </trkpt>
      <trkpt lat="43.66181" lon="17.97236">
        <ele>321.622046</ele>
        <time>2022-05-17T19:21:45.824Z</time>
      </trkpt>
      <trkpt lat="43.66255" lon="17.97297">
        <ele>321.260044</ele>
        <time>2022-05-17T19:22:10.478Z</time>
      </trkpt>
      <trkpt lat="43.66321" lon="17.97367">
        <ele>320.781529</ele>
        <time>2022-05-17T19:22:33.127Z</time>
      </trkpt>
      <trkpt lat="43.66383" lon="17.97397">
        <ele>320.405914</ele>
        <time>2022-05-17T19:22:49.513Z</time>
      </trkpt>
      <trkpt lat="43.66435" lon="17.97435">
        <ele>322.716773</ele>
        <time>2022-05-17T19:23:17.496Z</time>
      </trkpt>
      <trkpt lat="43.66471" lon="17.97463">
        <ele>324.364922</ele>
        <time>2022-05-17T19:23:41.093Z</time>
      </trkpt>
      <trkpt lat="43.66505" lon="17.97498">
        <ele>326.066177</ele>
        <time>2022-05-17T19:24:07.430Z</time>
      </trkpt>
      <trkpt lat="43.66526" lon="17.97545">
        <ele>327.626244</ele>
        <time>2022-05-17T19:24:33.677Z</time>
      </trkpt>
      <trkpt lat="43.66541" lon="17.97631">
        <ele>328.991185</ele>
        <time>2022-05-17T19:25:14.721Z</time>
      </trkpt>
      <trkpt lat="43.66551" lon="17.97665">
        <ele>329.557671</ele>
        <time>2022-05-17T19:25:29.802Z</time>
      </trkpt>
      <trkpt lat="43.66617" lon="17.97754">
        <ele>331.115673</ele>
        <time>2022-05-17T19:25:59.547Z</time>
      </trkpt>
      <trkpt lat="43.66648" lon="17.97778">
        <ele>328.730322</ele>
        <time>2022-05-17T19:26:06.787Z</time>
      </trkpt>
      <trkpt lat="43.66669" lon="17.97786">
        <ele>327.275456</ele>
        <time>2022-05-17T19:26:10.999Z</time>
      </trkpt>
      <trkpt lat="43.6674" lon="17.97795">
        <ele>322.512783</ele>
        <time>2022-05-17T19:26:24.728Z</time>
      </trkpt>
      <trkpt lat="43.66821" lon="17.97821">
        <ele>318.59277</ele>
        <time>2022-05-17T19:26:41.181Z</time>
      </trkpt>
      <trkpt lat="43.66866" lon="17.97844">
        <ele>317.58533</ele>
        <time>2022-05-17T19:26:51.572Z</time>
      </trkpt>
      <trkpt lat="43.66898" lon="17.97868">
        <ele>316.822444</ele>
        <time>2022-05-17T19:27:00.245Z</time>
      </trkpt>
      <trkpt lat="43.66948" lon="17.97911">
        <ele>315.610875</ele>
        <time>2022-05-17T19:27:23.693Z</time>
      </trkpt>
      <trkpt lat="43.66978" lon="17.97946">
        <ele>319.283633</ele>
        <time>2022-05-17T19:27:51.838Z</time>
      </trkpt>
      <trkpt lat="43.6699" lon="17.97969">
        <ele>321.198325</ele>
        <time>2022-05-17T19:28:08.252Z</time>
      </trkpt>
      <trkpt lat="43.67014" lon="17.98026">
        <ele>325.661633</ele>
        <time>2022-05-17T19:28:50.656Z</time>
      </trkpt>
      <trkpt lat="43.67055" lon="17.98172">
        <ele>336.377882</ele>
        <time>2022-05-17T19:30:45.820Z</time>
      </trkpt>
      <trkpt lat="43.67111" lon="17.98373">
        <ele>349.91865</ele>
        <time>2022-05-17T19:32:54.293Z</time>
      </trkpt>
      <trkpt lat="43.67133" lon="17.9841">
        <ele>350.567227</ele>
        <time>2022-05-17T19:33:11.518Z</time>
      </trkpt>
      <trkpt lat="43.67172" lon="17.98436">
        <ele>351.382885</ele>
        <time>2022-05-17T19:33:29.059Z</time>
      </trkpt>
      <trkpt lat="43.67242" lon="17.98461">
        <ele>352.736563</ele>
        <time>2022-05-17T19:33:49.534Z</time>
      </trkpt>
      <trkpt lat="43.67357" lon="17.98542">
        <ele>350.874709</ele>
        <time>2022-05-17T19:34:21.082Z</time>
      </trkpt>
      <trkpt lat="43.67391" lon="17.98555">
        <ele>350.249983</ele>
        <time>2022-05-17T19:34:30.077Z</time>
      </trkpt>
      <trkpt lat="43.67419" lon="17.98557">
        <ele>349.733157</ele>
        <time>2022-05-17T19:34:37.518Z</time>
      </trkpt>
      <trkpt lat="43.67448" lon="17.98568">
        <ele>348.808047</ele>
        <time>2022-05-17T19:34:46.280Z</time>
      </trkpt>
      <trkpt lat="43.6752" lon="17.98568">
        <ele>346.621975</ele>
        <time>2022-05-17T19:35:02.842Z</time>
      </trkpt>
      <trkpt lat="43.67557" lon="17.98592">
        <ele>345.353964</ele>
        <time>2022-05-17T19:35:12.168Z</time>
      </trkpt>
      <trkpt lat="43.67587" lon="17.98599">
        <ele>344.430107</ele>
        <time>2022-05-17T19:35:19.246Z</time>
      </trkpt>
      <trkpt lat="43.67654" lon="17.98574">
        <ele>344.522495</ele>
        <time>2022-05-17T19:35:37.585Z</time>
      </trkpt>
      <trkpt lat="43.67748" lon="17.98542">
        <ele>344.974773</ele>
        <time>2022-05-17T19:36:13.314Z</time>
      </trkpt>
      <trkpt lat="43.67798" lon="17.98567">
        <ele>346.822938</ele>
        <time>2022-05-17T19:36:42.321Z</time>
      </trkpt>
      <trkpt lat="43.67885" lon="17.98639">
        <ele>352.258699</ele>
        <time>2022-05-17T19:37:55.589Z</time>
      </trkpt>
      <trkpt lat="43.6794" lon="17.98669">
        <ele>354.882576</ele>
        <time>2022-05-17T19:38:29.417Z</time>
      </trkpt>
      <trkpt lat="43.67989" lon="17.98684">
        <ele>355.646825</ele>
        <time>2022-05-17T19:38:51.161Z</time>
      </trkpt>
      <trkpt lat="43.68031" lon="17.98687">
        <ele>356.277949</ele>
        <time>2022-05-17T19:39:07.451Z</time>
      </trkpt>
      <trkpt lat="43.68085" lon="17.98677">
        <ele>357.102309</ele>
        <time>2022-05-17T19:39:26.290Z</time>
      </trkpt>
      <trkpt lat="43.68189" lon="17.9864">
        <ele>356.350222</ele>
        <time>2022-05-17T19:39:54.695Z</time>
      </trkpt>
      <trkpt lat="43.68224" lon="17.98634">
        <ele>355.93082</ele>
        <time>2022-05-17T19:40:04.094Z</time>
      </trkpt>
      <trkpt lat="43.68467" lon="17.98655">
        <ele>352.499254</ele>
        <time>2022-05-17T19:41:06.667Z</time>
      </trkpt>
      <trkpt lat="43.68578" lon="17.98655">
        <ele>351.501517</ele>
        <time>2022-05-17T19:41:34.593Z</time>
      </trkpt>
      <trkpt lat="43.68617" lon="17.98642">
        <ele>351.141183</ele>
        <time>2022-05-17T19:41:45.646Z</time>
      </trkpt>
      <trkpt lat="43.68724" lon="17.98576">
        <ele>354.301357</ele>
        <time>2022-05-17T19:42:32.054Z</time>
      </trkpt>
      <trkpt lat="43.68804" lon="17.98556">
        <ele>357.16341</ele>
        <time>2022-05-17T19:43:23.114Z</time>
      </trkpt>
      <trkpt lat="43.68896" lon="17.98539">
        <ele>362.550222</ele>
        <time>2022-05-17T19:44:31.509Z</time>
      </trkpt>
      <trkpt lat="43.68964" lon="17.98546">
        <ele>366.51888</ele>
        <time>2022-05-17T19:45:13.383Z</time>
      </trkpt>
      <trkpt lat="43.6901" lon="17.98561">
        <ele>368.371016</ele>
        <time>2022-05-17T19:45:38.340Z</time>
      </trkpt>
      <trkpt lat="43.69063" lon="17.98566">
        <ele>369.605236</ele>
        <time>2022-05-17T19:46:00.810Z</time>
      </trkpt>
      <trkpt lat="43.69067" lon="17.98565">
        <ele>369.689458</ele>
        <time>2022-05-17T19:46:01.603Z</time>
      </trkpt>
      <trkpt lat="43.69091" lon="17.9856">
        <ele>370.259219</ele>
        <time>2022-05-17T19:46:13.045Z</time>
      </trkpt>
      <trkpt lat="43.69195" lon="17.98517">
        <ele>372.768746</ele>
        <time>2022-05-17T19:46:56.583Z</time>
      </trkpt>
      <trkpt lat="43.69207" lon="17.98513">
        <ele>373.066431</ele>
        <time>2022-05-17T19:47:01.304Z</time>
      </trkpt>
      <trkpt lat="43.69245" lon="17.98508">
        <ele>373.983933</ele>
        <time>2022-05-17T19:47:18.820Z</time>
      </trkpt>
      <trkpt lat="43.69366" lon="17.9852">
        <ele>377.090143</ele>
        <time>2022-05-17T19:48:14.653Z</time>
      </trkpt>
      <trkpt lat="43.6944" lon="17.98528">
        <ele>379.467411</ele>
        <time>2022-05-17T19:48:51.637Z</time>
      </trkpt>
      <trkpt lat="43.69502" lon="17.98561">
        <ele>381.574503</ele>
        <time>2022-05-17T19:49:25.406Z</time>
      </trkpt>
      <trkpt lat="43.69575" lon="17.98602">
        <ele>383.610422</ele>
        <time>2022-05-17T19:50:03.672Z</time>
      </trkpt>
      <trkpt lat="43.69599" lon="17.98619">
        <ele>384.266925</ele>
        <time>2022-05-17T19:50:16.149Z</time>
      </trkpt>
      <trkpt lat="43.6964" lon="17.98654">
        <ele>385.445058</ele>
        <time>2022-05-17T19:50:39.015Z</time>
      </trkpt>
      <trkpt lat="43.69725" lon="17.98711">
        <ele>386.667768</ele>
        <time>2022-05-17T19:51:12.326Z</time>
      </trkpt>
      <trkpt lat="43.69756" lon="17.98753">
        <ele>386.894301</ele>
        <time>2022-05-17T19:51:24.699Z</time>
      </trkpt>
      <trkpt lat="43.69817" lon="17.98882">
        <ele>388.252916</ele>
        <time>2022-05-17T19:52:01.263Z</time>
      </trkpt>
      <trkpt lat="43.69913" lon="17.99173">
        <ele>394.921187</ele>
        <time>2022-05-17T19:54:02.342Z</time>
      </trkpt>
      <trkpt lat="43.69928" lon="17.99209">
        <ele>395.723308</ele>
        <time>2022-05-17T19:54:17.099Z</time>
      </trkpt>
      <trkpt lat="43.69948" lon="17.9924">
        <ele>396.533085</ele>
        <time>2022-05-17T19:54:30.827Z</time>
      </trkpt>
      <trkpt lat="43.69971" lon="17.99264">
        <ele>397.319607</ele>
        <time>2022-05-17T19:54:42.513Z</time>
      </trkpt>
      <trkpt lat="43.70009" lon="17.99285">
        <ele>397.271572</ele>
        <time>2022-05-17T19:54:55.160Z</time>
      </trkpt>
      <trkpt lat="43.70075" lon="17.99298">
        <ele>396.766057</ele>
        <time>2022-05-17T19:55:12.229Z</time>
      </trkpt>
      <trkpt lat="43.70128" lon="17.99298">
        <ele>396.361622</ele>
        <time>2022-05-17T19:55:25.934Z</time>
      </trkpt>
      <trkpt lat="43.70147" lon="17.99296">
        <ele>396.216433</ele>
        <time>2022-05-17T19:55:30.820Z</time>
      </trkpt>
      <trkpt lat="43.70152" lon="17.99295">
        <ele>396.184567</ele>
        <time>2022-05-17T19:55:32.004Z</time>
      </trkpt>
      <trkpt lat="43.70182" lon="17.99285">
        <ele>396.423203</ele>
        <time>2022-05-17T19:55:40.596Z</time>
      </trkpt>
      <trkpt lat="43.70316" lon="17.99242">
        <ele>397.711744</ele>
        <time>2022-05-17T19:56:30.808Z</time>
      </trkpt>
      <trkpt lat="43.70332" lon="17.99237">
        <ele>397.913781</ele>
        <time>2022-05-17T19:56:39.263Z</time>
      </trkpt>
      <trkpt lat="43.70339" lon="17.99236">
        <ele>398.13759</ele>
        <time>2022-05-17T19:56:43.024Z</time>
      </trkpt>
      <trkpt lat="43.70383" lon="17.99231">
        <ele>399.570084</ele>
        <time>2022-05-17T19:57:05.591Z</time>
      </trkpt>
      <trkpt lat="43.7042" lon="17.99241">
        <ele>400.813838</ele>
        <time>2022-05-17T19:57:23.533Z</time>
      </trkpt>
      <trkpt lat="43.70488" lon="17.99287">
        <ele>403.272974</ele>
        <time>2022-05-17T19:57:59.197Z</time>
      </trkpt>
      <trkpt lat="43.70528" lon="17.99307">
        <ele>405.584838</ele>
        <time>2022-05-17T19:58:23.900Z</time>
      </trkpt>
      <trkpt lat="43.70561" lon="17.99304">
        <ele>407.624571</ele>
        <time>2022-05-17T19:58:44.854Z</time>
      </trkpt>
      <trkpt lat="43.70591" lon="17.99285">
        <ele>409.715773</ele>
        <time>2022-05-17T19:59:09.289Z</time>
      </trkpt>
      <trkpt lat="43.70616" lon="17.99244">
        <ele>412.19307</ele>
        <time>2022-05-17T19:59:40.789Z</time>
      </trkpt>
      <trkpt lat="43.70675" lon="17.99072">
        <ele>418.566017</ele>
        <time>2022-05-17T20:01:09.450Z</time>
      </trkpt>
      <trkpt lat="43.70696" lon="17.99054">
        <ele>419.51366</ele>
        <time>2022-05-17T20:01:21.190Z</time>
      </trkpt>
      <trkpt lat="43.7071" lon="17.99062">
        <ele>420.071137</ele>
        <time>2022-05-17T20:01:30.425Z</time>
      </trkpt>
      <trkpt lat="43.7072" lon="17.9908">
        <ele>420.692362</ele>
        <time>2022-05-17T20:01:34.638Z</time>
      </trkpt>
      <trkpt lat="43.70721" lon="17.99098">
        <ele>421.189366</ele>
        <time>2022-05-17T20:01:41.007Z</time>
      </trkpt>
      <trkpt lat="43.70698" lon="17.9917">
        <ele>422.343508</ele>
        <time>2022-05-17T20:01:57.199Z</time>
      </trkpt>
      <trkpt lat="43.70698" lon="17.99214">
        <ele>422.704263</ele>
        <time>2022-05-17T20:02:05.876Z</time>
      </trkpt>
      <trkpt lat="43.70715" lon="17.99245">
        <ele>423.025441</ele>
        <time>2022-05-17T20:02:13.652Z</time>
      </trkpt>
      <trkpt lat="43.70748" lon="17.99264">
        <ele>423.438263</ele>
        <time>2022-05-17T20:02:24.696Z</time>
      </trkpt>
      <trkpt lat="43.70837" lon="17.99298">
        <ele>427.140503</ele>
        <time>2022-05-17T20:03:16.332Z</time>
      </trkpt>
      <trkpt lat="43.70857" lon="17.9931">
        <ele>428.618988</ele>
        <time>2022-05-17T20:03:29.436Z</time>
      </trkpt>
      <trkpt lat="43.70926" lon="17.99387">
        <ele>434.704465</ele>
        <time>2022-05-17T20:04:38.613Z</time>
      </trkpt>
      <trkpt lat="43.70966" lon="17.99416">
        <ele>438.110123</ele>
        <time>2022-05-17T20:05:15.608Z</time>
      </trkpt>
      <trkpt lat="43.70998" lon="17.99419">
        <ele>440.682648</ele>
        <time>2022-05-17T20:05:40.526Z</time>
      </trkpt>
      <trkpt lat="43.7106" lon="17.99394">
        <ele>445.903338</ele>
        <time>2022-05-17T20:06:30.614Z</time>
      </trkpt>
      <trkpt lat="43.71094" lon="17.9939">
        <ele>448.709049</ele>
        <time>2022-05-17T20:06:56.516Z</time>
      </trkpt>
      <trkpt lat="43.71132" lon="17.994">
        <ele>451.631632</ele>
        <time>2022-05-17T20:07:25.201Z</time>
      </trkpt>
      <trkpt lat="43.7132" lon="17.99543">
        <ele>465.875432</ele>
        <time>2022-05-17T20:09:50.725Z</time>
      </trkpt>
      <trkpt lat="43.7135" lon="17.9956">
        <ele>467.929574</ele>
        <time>2022-05-17T20:10:11.189Z</time>
      </trkpt>
      <trkpt lat="43.71376" lon="17.9956">
        <ele>469.563105</ele>
        <time>2022-05-17T20:10:26.910Z</time>
      </trkpt>
      <trkpt lat="43.7142" lon="17.99528">
        <ele>472.716731</ele>
        <time>2022-05-17T20:10:59.905Z</time>
      </trkpt>
      <trkpt lat="43.71446" lon="17.9951">
        <ele>474.616546</ele>
        <time>2022-05-17T20:11:20.663Z</time>
      </trkpt>
      <trkpt lat="43.7147" lon="17.99507">
        <ele>476.335954</ele>
        <time>2022-05-17T20:11:37.287Z</time>
      </trkpt>
      <trkpt lat="43.71499" lon="17.99516">
        <ele>478.516224</ele>
        <time>2022-05-17T20:11:59.713Z</time>
      </trkpt>
      <trkpt lat="43.71544" lon="17.99541">
        <ele>481.983481</ele>
        <time>2022-05-17T20:12:34.651Z</time>
      </trkpt>
      <trkpt lat="43.71578" lon="17.99545">
        <ele>484.519586</ele>
        <time>2022-05-17T20:12:58.249Z</time>
      </trkpt>
      <trkpt lat="43.7164" lon="17.99512">
        <ele>489.654838</ele>
        <time>2022-05-17T20:13:45.549Z</time>
      </trkpt>
      <trkpt lat="43.71677" lon="17.99503">
        <ele>492.778595</ele>
        <time>2022-05-17T20:14:17.217Z</time>
      </trkpt>
      <trkpt lat="43.71703" lon="17.99508">
        <ele>494.968627</ele>
        <time>2022-05-17T20:14:39.084Z</time>
      </trkpt>
      <trkpt lat="43.71767" lon="17.99543">
        <ele>500.697083</ele>
        <time>2022-05-17T20:15:33.533Z</time>
      </trkpt>
      <trkpt lat="43.7181" lon="17.9956">
        <ele>504.278533</ele>
        <time>2022-05-17T20:16:07.051Z</time>
      </trkpt>
      <trkpt lat="43.71892" lon="17.99549">
        <ele>510.753007</ele>
        <time>2022-05-17T20:17:09.379Z</time>
      </trkpt>
      <trkpt lat="43.71922" lon="17.99555">
        <ele>513.076485</ele>
        <time>2022-05-17T20:17:31.709Z</time>
      </trkpt>
      <trkpt lat="43.71942" lon="17.99576">
        <ele>515.030712</ele>
        <time>2022-05-17T20:17:50.173Z</time>
      </trkpt>
      <trkpt lat="43.71955" lon="17.99603">
        <ele>516.899218</ele>
        <time>2022-05-17T20:18:06.407Z</time>
      </trkpt>
      <trkpt lat="43.71977" lon="17.99718">
        <ele>524.531854</ele>
        <time>2022-05-17T20:19:10.077Z</time>
      </trkpt>
      <trkpt lat="43.71992" lon="17.99742">
        <ele>526.572618</ele>
        <time>2022-05-17T20:19:27.960Z</time>
      </trkpt>
      <trkpt lat="43.7205" lon="17.99804">
        <ele>533.215056</ele>
        <time>2022-05-17T20:20:34.281Z</time>
      </trkpt>
      <trkpt lat="43.7209" lon="17.99907">
        <ele>542.437373</ele>
        <time>2022-05-17T20:21:54.228Z</time>
      </trkpt>
      <trkpt lat="43.72115" lon="17.99949">
        <ele>546.808633</ele>
        <time>2022-05-17T20:22:32.321Z</time>
      </trkpt>
      <trkpt lat="43.72133" lon="17.99962">
        <ele>549.024164</ele>
        <time>2022-05-17T20:22:51.816Z</time>
      </trkpt>
      <trkpt lat="43.7222" lon="17.99995">
        <ele>557.585721</ele>
        <time>2022-05-17T20:24:11.112Z</time>
      </trkpt>
      <trkpt lat="43.72287" lon="18.00073">
        <ele>565.229224</ele>
        <time>2022-05-17T20:25:17.068Z</time>
      </trkpt>
      <trkpt lat="43.72322" lon="18.00103">
        <ele>568.75485</ele>
        <time>2022-05-17T20:25:47.861Z</time>
      </trkpt>
      <trkpt lat="43.72347" lon="18.0011">
        <ele>570.608038</ele>
        <time>2022-05-17T20:26:07.979Z</time>
      </trkpt>
      <trkpt lat="43.72399" lon="18.00106">
        <ele>574.437454</ele>
        <time>2022-05-17T20:26:46.942Z</time>
      </trkpt>
      <trkpt lat="43.72441" lon="18.00124">
        <ele>577.644667</ele>
        <time>2022-05-17T20:27:18.564Z</time>
      </trkpt>
      <trkpt lat="43.72491" lon="18.00155">
        <ele>581.578803</ele>
        <time>2022-05-17T20:27:56.688Z</time>
      </trkpt>
      <trkpt lat="43.72571" lon="18.0017">
        <ele>585.960047</ele>
        <time>2022-05-17T20:28:47.497Z</time>
      </trkpt>
      <trkpt lat="43.72598" lon="18.00193">
        <ele>587.675499</ele>
        <time>2022-05-17T20:29:06.727Z</time>
      </trkpt>
      <trkpt lat="43.72616" lon="18.00227">
        <ele>589.34455</ele>
        <time>2022-05-17T20:29:24.284Z</time>
      </trkpt>
      <trkpt lat="43.72639" lon="18.00363">
        <ele>595.687462</ele>
        <time>2022-05-17T20:30:22.037Z</time>
      </trkpt>
      <trkpt lat="43.72648" lon="18.00388">
        <ele>597.0093</ele>
        <time>2022-05-17T20:30:35.322Z</time>
      </trkpt>
      <trkpt lat="43.72656" lon="18.00407">
        <ele>598.059454</ele>
        <time>2022-05-17T20:30:45.147Z</time>
      </trkpt>
      <trkpt lat="43.72684" lon="18.00436">
        <ele>600.380962</ele>
        <time>2022-05-17T20:31:10.232Z</time>
      </trkpt>
      <trkpt lat="43.72803" lon="18.00487">
        <ele>610.942827</ele>
        <time>2022-05-17T20:32:58.616Z</time>
      </trkpt>
      <trkpt lat="43.72905" lon="18.00509">
        <ele>620.256983</ele>
        <time>2022-05-17T20:34:25.575Z</time>
      </trkpt>
      <trkpt lat="43.73145" lon="18.00603">
        <ele>637.669275</ele>
        <time>2022-05-17T20:37:11.261Z</time>
      </trkpt>
      <trkpt lat="43.73159" lon="18.00617">
        <ele>638.909986</ele>
        <time>2022-05-17T20:37:21.919Z</time>
      </trkpt>
      <trkpt lat="43.73174" lon="18.00649">
        <ele>641.012164</ele>
        <time>2022-05-17T20:37:41.388Z</time>
      </trkpt>
      <trkpt lat="43.73178" lon="18.00675">
        <ele>642.386141</ele>
        <time>2022-05-17T20:37:55.014Z</time>
      </trkpt>
      <trkpt lat="43.73175" lon="18.00727">
        <ele>645.336364</ele>
        <time>2022-05-17T20:38:26.529Z</time>
      </trkpt>
      <trkpt lat="43.73177" lon="18.00771">
        <ele>650.025399</ele>
        <time>2022-05-17T20:38:56.055Z</time>
      </trkpt>
      <trkpt lat="43.73197" lon="18.00816">
        <ele>655.615865</ele>
        <time>2022-05-17T20:39:34.814Z</time>
      </trkpt>
      <trkpt lat="43.73312" lon="18.0093">
        <ele>677.84825</ele>
        <time>2022-05-17T20:42:33.319Z</time>
      </trkpt>
      <trkpt lat="43.73463" lon="18.01094">
        <ele>711.854181</ele>
        <time>2022-05-17T20:47:11.975Z</time>
      </trkpt>
      <trkpt lat="43.73493" lon="18.01131">
        <ele>716.9302</ele>
        <time>2022-05-17T20:47:56.860Z</time>
      </trkpt>
      <trkpt lat="43.73568" lon="18.01219">
        <ele>728.85745</ele>
        <time>2022-05-17T20:49:16.654Z</time>
      </trkpt>
      <trkpt lat="43.73609" lon="18.01236">
        <ele>730.429609</ele>
        <time>2022-05-17T20:49:38.886Z</time>
      </trkpt>
      <trkpt lat="43.73652" lon="18.01228">
        <ele>732.05868</ele>
        <time>2022-05-17T20:49:59.562Z</time>
      </trkpt>
      <trkpt lat="43.73763" lon="18.01175">
        <ele>736.980548</ele>
        <time>2022-05-17T20:50:51.990Z</time>
      </trkpt>
      <trkpt lat="43.73795" lon="18.01169">
        <ele>738.805231</ele>
        <time>2022-05-17T20:51:09.335Z</time>
      </trkpt>
      <trkpt lat="43.73824" lon="18.01175">
        <ele>740.497226</ele>
        <time>2022-05-17T20:51:27.148Z</time>
      </trkpt>
      <trkpt lat="43.7402" lon="18.01279">
        <ele>754.41275</ele>
        <time>2022-05-17T20:54:03.211Z</time>
      </trkpt>
      <trkpt lat="43.74063" lon="18.01319">
        <ele>758.19804</ele>
        <time>2022-05-17T20:54:40.674Z</time>
      </trkpt>
      <trkpt lat="43.74123" lon="18.01393">
        <ele>761.350813</ele>
        <time>2022-05-17T20:55:31.076Z</time>
      </trkpt>
      <trkpt lat="43.74195" lon="18.01463">
        <ele>764.455126</ele>
        <time>2022-05-17T20:56:12.207Z</time>
      </trkpt>
      <trkpt lat="43.7423" lon="18.01504">
        <ele>764.778168</ele>
        <time>2022-05-17T20:56:28.086Z</time>
      </trkpt>
      <trkpt lat="43.74287" lon="18.01591">
        <ele>763.560145</ele>
        <time>2022-05-17T20:56:48.225Z</time>
      </trkpt>
      <trkpt lat="43.74325" lon="18.0166">
        <ele>762.663213</ele>
        <time>2022-05-17T20:57:03.555Z</time>
      </trkpt>
      <trkpt lat="43.74351" lon="18.01713">
        <ele>762.995498</ele>
        <time>2022-05-17T20:57:15.443Z</time>
      </trkpt>
      <trkpt lat="43.74394" lon="18.01764">
        <ele>763.577425</ele>
        <time>2022-05-17T20:57:35.351Z</time>
      </trkpt>
      <trkpt lat="43.74403" lon="18.01774">
        <ele>763.691537</ele>
        <time>2022-05-17T20:57:40.144Z</time>
      </trkpt>
      <trkpt lat="43.74426" lon="18.01811">
        <ele>764.056964</ele>
        <time>2022-05-17T20:57:55.112Z</time>
      </trkpt>
      <trkpt lat="43.74432" lon="18.0183">
        <ele>764.213477</ele>
        <time>2022-05-17T20:58:01.429Z</time>
      </trkpt>
      <trkpt lat="43.74437" lon="18.01869">
        <ele>764.710101</ele>
        <time>2022-05-17T20:58:14.853Z</time>
      </trkpt>
      <trkpt lat="43.7443" lon="18.0191">
        <ele>765.933549</ele>
        <time>2022-05-17T20:58:31.837Z</time>
      </trkpt>
      <trkpt lat="43.74406" lon="18.01956">
        <ele>767.572712</ele>
        <time>2022-05-17T20:58:55.713Z</time>
      </trkpt>
      <trkpt lat="43.74338" lon="18.02027">
        <ele>770.992502</ele>
        <time>2022-05-17T20:59:43.687Z</time>
      </trkpt>
      <trkpt lat="43.74274" lon="18.0211">
        <ele>773.388668</ele>
        <time>2022-05-17T21:00:27.101Z</time>
      </trkpt>
      <trkpt lat="43.7417" lon="18.02272">
        <ele>776.307572</ele>
        <time>2022-05-17T21:01:31.078Z</time>
      </trkpt>
      <trkpt lat="43.7414" lon="18.02348">
        <ele>776.699996</ele>
        <time>2022-05-17T21:01:51.961Z</time>
      </trkpt>
      <trkpt lat="43.74111" lon="18.02459">
        <ele>777.279462</ele>
        <time>2022-05-17T21:02:18.298Z</time>
      </trkpt>
      <trkpt lat="43.7409" lon="18.02512">
        <ele>777.675795</ele>
        <time>2022-05-17T21:02:31.549Z</time>
      </trkpt>
      <trkpt lat="43.7402" lon="18.02655">
        <ele>778.879838</ele>
        <time>2022-05-17T21:03:18.098Z</time>
      </trkpt>
      <trkpt lat="43.73944" lon="18.02837">
        <ele>782.962318</ele>
        <time>2022-05-17T21:04:29.193Z</time>
      </trkpt>
      <trkpt lat="43.73915" lon="18.02884">
        <ele>784.235079</ele>
        <time>2022-05-17T21:04:52.008Z</time>
      </trkpt>
      <trkpt lat="43.7378" lon="18.03075">
        <ele>789.710245</ele>
        <time>2022-05-17T21:06:26.172Z</time>
      </trkpt>
      <trkpt lat="43.73683" lon="18.03271">
        <ele>792.668327</ele>
        <time>2022-05-17T21:07:31.351Z</time>
      </trkpt>
      <trkpt lat="43.73644" lon="18.03369">
        <ele>794.34655</ele>
        <time>2022-05-17T21:08:02.141Z</time>
      </trkpt>
      <trkpt lat="43.73612" lon="18.0346">
        <ele>795.891134</ele>
        <time>2022-05-17T21:08:36.038Z</time>
      </trkpt>
      <trkpt lat="43.73563" lon="18.0355">
        <ele>800.351983</ele>
        <time>2022-05-17T21:09:22.486Z</time>
      </trkpt>
      <trkpt lat="43.73429" lon="18.03705">
        <ele>810.962582</ele>
        <time>2022-05-17T21:11:21.726Z</time>
      </trkpt>
      <trkpt lat="43.73406" lon="18.03739">
        <ele>813.323743</ele>
        <time>2022-05-17T21:11:46.382Z</time>
      </trkpt>
      <trkpt lat="43.7338" lon="18.03801">
        <ele>816.832947</ele>
        <time>2022-05-17T21:12:21.579Z</time>
      </trkpt>
      <trkpt lat="43.73371" lon="18.03873">
        <ele>820.325554</ele>
        <time>2022-05-17T21:12:59.553Z</time>
      </trkpt>
      <trkpt lat="43.73375" lon="18.03948">
        <ele>823.85571</ele>
        <time>2022-05-17T21:13:37.676Z</time>
      </trkpt>
      <trkpt lat="43.7343" lon="18.04212">
        <ele>833.432654</ele>
        <time>2022-05-17T21:15:45.195Z</time>
      </trkpt>
      <trkpt lat="43.73447" lon="18.04268">
        <ele>834.983114</ele>
        <time>2022-05-17T21:16:01.066Z</time>
      </trkpt>
      <trkpt lat="43.73459" lon="18.04293">
        <ele>835.723731</ele>
        <time>2022-05-17T21:16:07.272Z</time>
      </trkpt>
      <trkpt lat="43.73495" lon="18.04338">
        <ele>835.654487</ele>
        <time>2022-05-17T21:16:20.621Z</time>
      </trkpt>
      <trkpt lat="43.73526" lon="18.04353">
        <ele>835.431194</ele>
        <time>2022-05-17T21:16:28.663Z</time>
      </trkpt>
      <trkpt lat="43.73562" lon="18.04353">
        <ele>835.182913</ele>
        <time>2022-05-17T21:16:37.687Z</time>
      </trkpt>
      <trkpt lat="43.7358" lon="18.04347">
        <ele>835.056826</ele>
        <time>2022-05-17T21:16:42.559Z</time>
      </trkpt>
      <trkpt lat="43.73609" lon="18.04327">
        <ele>834.834603</ele>
        <time>2022-05-17T21:16:51.388Z</time>
      </trkpt>
      <trkpt lat="43.73622" lon="18.04312">
        <ele>834.71672</ele>
        <time>2022-05-17T21:16:56.266Z</time>
      </trkpt>
      <trkpt lat="43.73645" lon="18.04268">
        <ele>836.524241</ele>
        <time>2022-05-17T21:17:09.739Z</time>
      </trkpt>
      <trkpt lat="43.73677" lon="18.04125">
        <ele>841.703849</ele>
        <time>2022-05-17T21:18:18.921Z</time>
      </trkpt>
      <trkpt lat="43.73694" lon="18.04089">
        <ele>843.204256</ele>
        <time>2022-05-17T21:18:42.145Z</time>
      </trkpt>
      <trkpt lat="43.73722" lon="18.04055">
        <ele>845.616618</ele>
        <time>2022-05-17T21:19:10.233Z</time>
      </trkpt>
      <trkpt lat="43.73765" lon="18.04031">
        <ele>848.709147</ele>
        <time>2022-05-17T21:19:44.980Z</time>
      </trkpt>
      <trkpt lat="43.73863" lon="18.04033">
        <ele>855.26169</ele>
        <time>2022-05-17T21:20:50.622Z</time>
      </trkpt>
      <trkpt lat="43.73888" lon="18.04029">
        <ele>856.186825</ele>
        <time>2022-05-17T21:21:04.956Z</time>
      </trkpt>
      <trkpt lat="43.73907" lon="18.04019">
        <ele>856.928439</ele>
        <time>2022-05-17T21:21:15.808Z</time>
      </trkpt>
      <trkpt lat="43.73982" lon="18.03954">
        <ele>860.202415</ele>
        <time>2022-05-17T21:21:57.968Z</time>
      </trkpt>
      <trkpt lat="43.74015" lon="18.03912">
        <ele>861.841126</ele>
        <time>2022-05-17T21:22:19.394Z</time>
      </trkpt>
      <trkpt lat="43.74029" lon="18.03882">
        <ele>863.03716</ele>
        <time>2022-05-17T21:22:31.906Z</time>
      </trkpt>
      <trkpt lat="43.74071" lon="18.03763">
        <ele>867.481133</ele>
        <time>2022-05-17T21:23:24.633Z</time>
      </trkpt>
      <trkpt lat="43.7409" lon="18.03732">
        <ele>868.870659</ele>
        <time>2022-05-17T21:23:43.546Z</time>
      </trkpt>
      <trkpt lat="43.74138" lon="18.03692">
        <ele>871.743759</ele>
        <time>2022-05-17T21:24:19.947Z</time>
      </trkpt>
      <trkpt lat="43.74183" lon="18.03687">
        <ele>874.378106</ele>
        <time>2022-05-17T21:24:49.967Z</time>
      </trkpt>
      <trkpt lat="43.74194" lon="18.03686">
        <ele>875.0146</ele>
        <time>2022-05-17T21:24:58.636Z</time>
      </trkpt>
      <trkpt lat="43.74248" lon="18.0371">
        <ele>878.340343</ele>
        <time>2022-05-17T21:25:34.279Z</time>
      </trkpt>
      <trkpt lat="43.74365" lon="18.03824">
        <ele>885.426974</ele>
        <time>2022-05-17T21:26:59.334Z</time>
      </trkpt>
      <trkpt lat="43.74517" lon="18.03961">
        <ele>892.494415</ele>
        <time>2022-05-17T21:28:36.637Z</time>
      </trkpt>
      <trkpt lat="43.7473" lon="18.04186">
        <ele>898.296257</ele>
        <time>2022-05-17T21:30:36.346Z</time>
      </trkpt>
      <trkpt lat="43.74764" lon="18.04218">
        <ele>897.243371</ele>
        <time>2022-05-17T21:30:46.634Z</time>
      </trkpt>
      <trkpt lat="43.74914" lon="18.04352">
        <ele>892.090554</ele>
        <time>2022-05-17T21:31:25.974Z</time>
      </trkpt>
      <trkpt lat="43.74933" lon="18.04383">
        <ele>890.999335</ele>
        <time>2022-05-17T21:31:32.461Z</time>
      </trkpt>
      <trkpt lat="43.74971" lon="18.04479">
        <ele>888.090478</ele>
        <time>2022-05-17T21:31:50.138Z</time>
      </trkpt>
      <trkpt lat="43.74975" lon="18.04488">
        <ele>887.801811</ele>
        <time>2022-05-17T21:31:51.873Z</time>
      </trkpt>
      <trkpt lat="43.75006" lon="18.04532">
        <ele>886.251998</ele>
        <time>2022-05-17T21:32:01.940Z</time>
      </trkpt>
      <trkpt lat="43.75029" lon="18.04547">
        <ele>885.34937</ele>
        <time>2022-05-17T21:32:07.930Z</time>
      </trkpt>
      <trkpt lat="43.75082" lon="18.04563">
        <ele>883.458928</ele>
        <time>2022-05-17T21:32:20.459Z</time>
      </trkpt>
      <trkpt lat="43.75121" lon="18.04594">
        <ele>881.881035</ele>
        <time>2022-05-17T21:32:30.478Z</time>
      </trkpt>
      <trkpt lat="43.75171" lon="18.04695">
        <ele>876.702725</ele>
        <time>2022-05-17T21:32:49.677Z</time>
      </trkpt>
      <trkpt lat="43.75267" lon="18.04795">
        <ele>868.451693</ele>
        <time>2022-05-17T21:33:13.522Z</time>
      </trkpt>
      <trkpt lat="43.75304" lon="18.04848">
        <ele>863.065048</ele>
        <time>2022-05-17T21:33:23.424Z</time>
      </trkpt>
      <trkpt lat="43.75371" lon="18.05016">
        <ele>849.394624</ele>
        <time>2022-05-17T21:33:49.687Z</time>
      </trkpt>
      <trkpt lat="43.75383" lon="18.05048">
        <ele>847.366868</ele>
        <time>2022-05-17T21:33:54.714Z</time>
      </trkpt>
      <trkpt lat="43.75416" lon="18.05116">
        <ele>842.823338</ele>
        <time>2022-05-17T21:34:06.219Z</time>
      </trkpt>
      <trkpt lat="43.75435" lon="18.05138">
        <ele>840.849687</ele>
        <time>2022-05-17T21:34:11.305Z</time>
      </trkpt>
      <trkpt lat="43.75461" lon="18.05156">
        <ele>838.670072</ele>
        <time>2022-05-17T21:34:17.072Z</time>
      </trkpt>
      <trkpt lat="43.75493" lon="18.0517">
        <ele>836.142827</ele>
        <time>2022-05-17T21:34:24.361Z</time>
      </trkpt>
      <trkpt lat="43.75654" lon="18.05199">
        <ele>825.835063</ele>
        <time>2022-05-17T21:34:57.410Z</time>
      </trkpt>
      <trkpt lat="43.75736" lon="18.05236">
        <ele>819.463639</ele>
        <time>2022-05-17T21:35:14.362Z</time>
      </trkpt>
      <trkpt lat="43.75771" lon="18.0526">
        <ele>816.488934</ele>
        <time>2022-05-17T21:35:22.190Z</time>
      </trkpt>
      <trkpt lat="43.75871" lon="18.05347">
        <ele>808.692574</ele>
        <time>2022-05-17T21:35:45.573Z</time>
      </trkpt>
      <trkpt lat="43.75915" lon="18.05413">
        <ele>804.981336</ele>
        <time>2022-05-17T21:35:58.809Z</time>
      </trkpt>
      <trkpt lat="43.75929" lon="18.05446">
        <ele>803.38668</ele>
        <time>2022-05-17T21:36:04.746Z</time>
      </trkpt>
      <trkpt lat="43.75965" lon="18.05572">
        <ele>799.036346</ele>
        <time>2022-05-17T21:36:27.107Z</time>
      </trkpt>
      <trkpt lat="43.76003" lon="18.05642">
        <ele>796.605192</ele>
        <time>2022-05-17T21:36:41.619Z</time>
      </trkpt>
      <trkpt lat="43.76044" lon="18.05682">
        <ele>794.691397</ele>
        <time>2022-05-17T21:36:52.630Z</time>
      </trkpt>
      <trkpt lat="43.76249" lon="18.05829">
        <ele>777.719585</ele>
        <time>2022-05-17T21:37:39.031Z</time>
      </trkpt>
      <trkpt lat="43.76359" lon="18.05917">
        <ele>765.345315</ele>
        <time>2022-05-17T21:38:03.017Z</time>
      </trkpt>
      <trkpt lat="43.76399" lon="18.05932">
        <ele>761.608652</ele>
        <time>2022-05-17T21:38:10.772Z</time>
      </trkpt>
      <trkpt lat="43.76425" lon="18.05934">
        <ele>759.251446</ele>
        <time>2022-05-17T21:38:15.684Z</time>
      </trkpt>
      <trkpt lat="43.76448" lon="18.05929">
        <ele>757.121083</ele>
        <time>2022-05-17T21:38:20.124Z</time>
      </trkpt>
      <trkpt lat="43.76722" lon="18.05812">
        <ele>735.384336</ele>
        <time>2022-05-17T21:39:17.193Z</time>
      </trkpt>
      <trkpt lat="43.76856" lon="18.05737">
        <ele>728.000651</ele>
        <time>2022-05-17T21:39:47.665Z</time>
      </trkpt>
      <trkpt lat="43.76917" lon="18.05713">
        <ele>726.12559</ele>
        <time>2022-05-17T21:40:01.715Z</time>
      </trkpt>
      <trkpt lat="43.77038" lon="18.05701">
        <ele>723.632204</ele>
        <time>2022-05-17T21:40:33.072Z</time>
      </trkpt>
      <trkpt lat="43.7708" lon="18.05703">
        <ele>723.175377</ele>
        <time>2022-05-17T21:40:44.840Z</time>
      </trkpt>
      <trkpt lat="43.77103" lon="18.05735">
        <ele>722.988224</ele>
        <time>2022-05-17T21:40:53.936Z</time>
      </trkpt>
      <trkpt lat="43.77306" lon="18.05914">
        <ele>720.966853</ele>
        <time>2022-05-17T21:42:04.078Z</time>
      </trkpt>
      <trkpt lat="43.77371" lon="18.05998">
        <ele>719.55701</ele>
        <time>2022-05-17T21:42:25.432Z</time>
      </trkpt>
      <trkpt lat="43.77386" lon="18.06052">
        <ele>718.502126</ele>
        <time>2022-05-17T21:42:35.166Z</time>
      </trkpt>
      <trkpt lat="43.77411" lon="18.06049">
        <ele>717.866933</ele>
        <time>2022-05-17T21:42:41.357Z</time>
      </trkpt>
      <trkpt lat="43.77417" lon="18.0602">
        <ele>717.319509</ele>
        <time>2022-05-17T21:42:46.955Z</time>
      </trkpt>
      <trkpt lat="43.77439" lon="18.06006">
        <ele>716.720193</ele>
        <time>2022-05-17T21:42:51.941Z</time>
      </trkpt>
      <trkpt lat="43.77451" lon="18.06039">
        <ele>716.040912</ele>
        <time>2022-05-17T21:42:58.381Z</time>
      </trkpt>
      <trkpt lat="43.77475" lon="18.06105">
        <ele>715.871486</ele>
        <time>2022-05-17T21:43:11.309Z</time>
      </trkpt>
      <trkpt lat="43.77508" lon="18.06209">
        <ele>716.035816</ele>
        <time>2022-05-17T21:43:32.818Z</time>
      </trkpt>
      <trkpt lat="43.77551" lon="18.06403">
        <ele>718.953248</ele>
        <time>2022-05-17T21:44:53.947Z</time>
      </trkpt>
      <trkpt lat="43.77587" lon="18.06529">
        <ele>721.445433</ele>
        <time>2022-05-17T21:45:41.999Z</time>
      </trkpt>
      <trkpt lat="43.77662" lon="18.06778">
        <ele>716.593866</ele>
        <time>2022-05-17T21:46:27.873Z</time>
      </trkpt>
      <trkpt lat="43.77692" lon="18.06928">
        <ele>710.408421</ele>
        <time>2022-05-17T21:46:50.341Z</time>
      </trkpt>
      <trkpt lat="43.77712" lon="18.06979">
        <ele>708.099066</ele>
        <time>2022-05-17T21:46:59.007Z</time>
      </trkpt>
      <trkpt lat="43.77775" lon="18.07072">
        <ele>704.246668</ele>
        <time>2022-05-17T21:47:18.539Z</time>
      </trkpt>
      <trkpt lat="43.77811" lon="18.07116">
        <ele>702.241086</ele>
        <time>2022-05-17T21:47:29.411Z</time>
      </trkpt>
      <trkpt lat="43.779" lon="18.07221">
        <ele>697.904857</ele>
        <time>2022-05-17T21:47:56.587Z</time>
      </trkpt>
      <trkpt lat="43.77941" lon="18.0726">
        <ele>696.18617</ele>
        <time>2022-05-17T21:48:07.886Z</time>
      </trkpt>
      <trkpt lat="43.77999" lon="18.07302">
        <ele>693.835043</ele>
        <time>2022-05-17T21:48:22.079Z</time>
      </trkpt>
      <trkpt lat="43.78214" lon="18.07403">
        <ele>685.789291</ele>
        <time>2022-05-17T21:49:11.525Z</time>
      </trkpt>
      <trkpt lat="43.7825" lon="18.07433">
        <ele>684.973137</ele>
        <time>2022-05-17T21:49:22.836Z</time>
      </trkpt>
      <trkpt lat="43.7832" lon="18.07507">
        <ele>683.376228</ele>
        <time>2022-05-17T21:49:47.654Z</time>
      </trkpt>
      <trkpt lat="43.78366" lon="18.07548">
        <ele>682.861534</ele>
        <time>2022-05-17T21:50:04.009Z</time>
      </trkpt>
      <trkpt lat="43.78496" lon="18.07616">
        <ele>681.295612</ele>
        <time>2022-05-17T21:50:41.086Z</time>
      </trkpt>
      <trkpt lat="43.7855" lon="18.07654">
        <ele>680.05425</ele>
        <time>2022-05-17T21:50:55.358Z</time>
      </trkpt>
      <trkpt lat="43.7869" lon="18.07791">
        <ele>677.061168</ele>
        <time>2022-05-17T21:51:37.477Z</time>
      </trkpt>
      <trkpt lat="43.78725" lon="18.07844">
        <ele>676.351304</ele>
        <time>2022-05-17T21:51:51.501Z</time>
      </trkpt>
      <trkpt lat="43.78791" lon="18.07984">
        <ele>674.699695</ele>
        <time>2022-05-17T21:52:24.452Z</time>
      </trkpt>
      <trkpt lat="43.78815" lon="18.08022">
        <ele>674.208596</ele>
        <time>2022-05-17T21:52:34.020Z</time>
      </trkpt>
      <trkpt lat="43.78841" lon="18.08055">
        <ele>673.730035</ele>
        <time>2022-05-17T21:52:43.134Z</time>
      </trkpt>
      <trkpt lat="43.78928" lon="18.08153">
        <ele>671.628293</ele>
        <time>2022-05-17T21:53:10.816Z</time>
      </trkpt>
      <trkpt lat="43.78997" lon="18.08234">
        <ele>669.683508</ele>
        <time>2022-05-17T21:53:32.369Z</time>
      </trkpt>
      <trkpt lat="43.79026" lon="18.08276">
        <ele>668.893967</ele>
        <time>2022-05-17T21:53:42.509Z</time>
      </trkpt>
      <trkpt lat="43.79096" lon="18.08394">
        <ele>667.012518</ele>
        <time>2022-05-17T21:54:10.228Z</time>
      </trkpt>
      <trkpt lat="43.79159" lon="18.08484">
        <ele>666.400425</ele>
        <time>2022-05-17T21:54:33.808Z</time>
      </trkpt>
      <trkpt lat="43.79236" lon="18.08618">
        <ele>666.834791</ele>
        <time>2022-05-17T21:55:17.675Z</time>
      </trkpt>
      <trkpt lat="43.79276" lon="18.08689">
        <ele>666.99389</ele>
        <time>2022-05-17T21:55:45.035Z</time>
      </trkpt>
      <trkpt lat="43.79301" lon="18.08722">
        <ele>667.070534</ele>
        <time>2022-05-17T21:55:58.603Z</time>
      </trkpt>
      <trkpt lat="43.79333" lon="18.08752">
        <ele>667.155672</ele>
        <time>2022-05-17T21:56:12.929Z</time>
      </trkpt>
      <trkpt lat="43.79378" lon="18.08782">
        <ele>667.263907</ele>
        <time>2022-05-17T21:56:26.555Z</time>
      </trkpt>
      <trkpt lat="43.79429" lon="18.08898">
        <ele>662.732151</ele>
        <time>2022-05-17T21:56:47.841Z</time>
      </trkpt>
      <trkpt lat="43.79416" lon="18.0904">
        <ele>658.025254</ele>
        <time>2022-05-17T21:57:08.803Z</time>
      </trkpt>
      <trkpt lat="43.7941" lon="18.09107">
        <ele>656.288072</ele>
        <time>2022-05-17T21:57:19.064Z</time>
      </trkpt>
      <trkpt lat="43.79407" lon="18.09147">
        <ele>655.275712</ele>
        <time>2022-05-17T21:57:25.213Z</time>
      </trkpt>
      <trkpt lat="43.79404" lon="18.09226">
        <ele>653.24226</ele>
        <time>2022-05-17T21:57:38.775Z</time>
      </trkpt>
      <trkpt lat="43.79404" lon="18.09237">
        <ele>652.971411</ele>
        <time>2022-05-17T21:57:40.718Z</time>
      </trkpt>
      <trkpt lat="43.79405" lon="18.09258">
        <ele>652.418953</ele>
        <time>2022-05-17T21:57:45.431Z</time>
      </trkpt>
      <trkpt lat="43.79406" lon="18.09282">
        <ele>652.447063</ele>
        <time>2022-05-17T21:57:51.014Z</time>
      </trkpt>
      <trkpt lat="43.79417" lon="18.09344">
        <ele>652.977672</ele>
        <time>2022-05-17T21:58:07.558Z</time>
      </trkpt>
      <trkpt lat="43.79448" lon="18.09434">
        <ele>653.815436</ele>
        <time>2022-05-17T21:58:36.630Z</time>
      </trkpt>
      <trkpt lat="43.79487" lon="18.09502">
        <ele>654.559959</ele>
        <time>2022-05-17T21:59:03.089Z</time>
      </trkpt>
      <trkpt lat="43.7953" lon="18.09564">
        <ele>655.376791</ele>
        <time>2022-05-17T21:59:28.698Z</time>
      </trkpt>
      <trkpt lat="43.79551" lon="18.09582">
        <ele>655.699473</ele>
        <time>2022-05-17T21:59:38.780Z</time>
      </trkpt>
      <trkpt lat="43.79675" lon="18.09584">
        <ele>656.775748</ele>
        <time>2022-05-17T22:00:22.381Z</time>
      </trkpt>
      <trkpt lat="43.79782" lon="18.09566">
        <ele>656.87555</ele>
        <time>2022-05-17T22:00:56.475Z</time>
      </trkpt>
      <trkpt lat="43.79794" lon="18.09564">
        <ele>656.886698</ele>
        <time>2022-05-17T22:00:59.689Z</time>
      </trkpt>
      <trkpt lat="43.79811" lon="18.09575">
        <ele>656.856457</ele>
        <time>2022-05-17T22:01:05.431Z</time>
      </trkpt>
      <trkpt lat="43.79819" lon="18.09593">
        <ele>656.698423</ele>
        <time>2022-05-17T22:01:09.585Z</time>
      </trkpt>
      <trkpt lat="43.79819" lon="18.09601">
        <ele>656.645652</ele>
        <time>2022-05-17T22:01:11.310Z</time>
      </trkpt>
      <trkpt lat="43.79817" lon="18.09666">
        <ele>656.163863</ele>
        <time>2022-05-17T22:01:24.025Z</time>
      </trkpt>
      <trkpt lat="43.79837" lon="18.09697">
        <ele>655.862756</ele>
        <time>2022-05-17T22:01:31.889Z</time>
      </trkpt>
      <trkpt lat="43.7984" lon="18.09726">
        <ele>655.651553</ele>
        <time>2022-05-17T22:01:37.297Z</time>
      </trkpt>
      <trkpt lat="43.7984" lon="18.09735">
        <ele>655.584106</ele>
        <time>2022-05-17T22:01:39.130Z</time>
      </trkpt>
      <trkpt lat="43.79824" lon="18.09785">
        <ele>655.188712</ele>
        <time>2022-05-17T22:01:49.805Z</time>
      </trkpt>
      <trkpt lat="43.79827" lon="18.09803">
        <ele>655.045807</ele>
        <time>2022-05-17T22:01:53.472Z</time>
      </trkpt>
      <trkpt lat="43.79833" lon="18.09851">
        <ele>654.653522</ele>
        <time>2022-05-17T22:02:02.446Z</time>
      </trkpt>
      <trkpt lat="43.79851" lon="18.09967">
        <ele>653.696433</ele>
        <time>2022-05-17T22:02:24.431Z</time>
      </trkpt>
      <trkpt lat="43.79862" lon="18.10045">
        <ele>653.069837</ele>
        <time>2022-05-17T22:02:40.043Z</time>
      </trkpt>
      <trkpt lat="43.79868" lon="18.1009">
        <ele>653.298744</ele>
        <time>2022-05-17T22:02:49.985Z</time>
      </trkpt>
      <trkpt lat="43.79886" lon="18.10227">
        <ele>654.008999</ele>
        <time>2022-05-17T22:03:24.273Z</time>
      </trkpt>
      <trkpt lat="43.79884" lon="18.10299">
        <ele>654.545006</ele>
        <time>2022-05-17T22:03:45.390Z</time>
      </trkpt>
      <trkpt lat="43.79871" lon="18.10359">
        <ele>656.083413</ele>
        <time>2022-05-17T22:04:05.720Z</time>
      </trkpt>
      <trkpt lat="43.79856" lon="18.10396">
        <ele>657.107907</ele>
        <time>2022-05-17T22:04:20.975Z</time>
      </trkpt>
      <trkpt lat="43.79821" lon="18.10452">
        <ele>658.949839</ele>
        <time>2022-05-17T22:04:50.733Z</time>
      </trkpt>
      <trkpt lat="43.79812" lon="18.1045">
        <ele>659.244287</ele>
        <time>2022-05-17T22:04:56.657Z</time>
      </trkpt>
      <trkpt lat="43.79767" lon="18.10474">
        <ele>660.924179</ele>
        <time>2022-05-17T22:05:27.296Z</time>
      </trkpt>
      <trkpt lat="43.79713" lon="18.10516">
        <ele>663.209419</ele>
        <time>2022-05-17T22:06:07.677Z</time>
      </trkpt>
      <trkpt lat="43.79581" lon="18.10564">
        <ele>667.991716</ele>
        <time>2022-05-17T22:07:15.915Z</time>
      </trkpt>
      <trkpt lat="43.79534" lon="18.10593">
        <ele>669.509475</ele>
        <time>2022-05-17T22:07:38.837Z</time>
      </trkpt>
      <trkpt lat="43.79456" lon="18.10666">
        <ele>672.290474</ele>
        <time>2022-05-17T22:08:23.303Z</time>
      </trkpt>
      <trkpt lat="43.79422" lon="18.10709">
        <ele>673.921343</ele>
        <time>2022-05-17T22:08:46.275Z</time>
      </trkpt>
      <trkpt lat="43.79382" lon="18.10776">
        <ele>676.136165</ele>
        <time>2022-05-17T22:09:17.508Z</time>
      </trkpt>
      <trkpt lat="43.7936" lon="18.10826">
        <ele>677.657938</ele>
        <time>2022-05-17T22:09:39.773Z</time>
      </trkpt>
      <trkpt lat="43.79316" lon="18.10959">
        <ele>682.406059</ele>
        <time>2022-05-17T22:10:37.062Z</time>
      </trkpt>
      <trkpt lat="43.79256" lon="18.11141">
        <ele>689.815701</ele>
        <time>2022-05-17T22:12:06.310Z</time>
      </trkpt>
      <trkpt lat="43.79218" lon="18.11209">
        <ele>693.287166</ele>
        <time>2022-05-17T22:12:48.213Z</time>
      </trkpt>
      <trkpt lat="43.79149" lon="18.11298">
        <ele>697.92592</ele>
        <time>2022-05-17T22:13:46.342Z</time>
      </trkpt>
      <trkpt lat="43.79123" lon="18.11341">
        <ele>698.596777</ele>
        <time>2022-05-17T22:14:06.902Z</time>
      </trkpt>
      <trkpt lat="43.79103" lon="18.11392">
        <ele>699.307497</ele>
        <time>2022-05-17T22:14:26.125Z</time>
      </trkpt>
      <trkpt lat="43.7901" lon="18.11783">
        <ele>700.192079</ele>
        <time>2022-05-17T22:15:47.969Z</time>
      </trkpt>
      <trkpt lat="43.78996" lon="18.1182">
        <ele>700.908043</ele>
        <time>2022-05-17T22:15:58.957Z</time>
      </trkpt>
      <trkpt lat="43.78989" lon="18.11834">
        <ele>701.192635</ele>
        <time>2022-05-17T22:16:03.988Z</time>
      </trkpt>
      <trkpt lat="43.78957" lon="18.11888">
        <ele>702.38724</ele>
        <time>2022-05-17T22:16:27.837Z</time>
      </trkpt>
      <trkpt lat="43.78898" lon="18.11952">
        <ele>704.524008</ele>
        <time>2022-05-17T22:17:13.064Z</time>
      </trkpt>
      <trkpt lat="43.78858" lon="18.11986">
        <ele>706.324485</ele>
        <time>2022-05-17T22:17:42.202Z</time>
      </trkpt>
      <trkpt lat="43.78775" lon="18.12062">
        <ele>710.16968</ele>
        <time>2022-05-17T22:18:35.640Z</time>
      </trkpt>
      <trkpt lat="43.78737" lon="18.12122">
        <ele>709.415196</ele>
        <time>2022-05-17T22:18:54.227Z</time>
      </trkpt>
      <trkpt lat="43.78731" lon="18.12138">
        <ele>709.081956</ele>
        <time>2022-05-17T22:18:57.709Z</time>
      </trkpt>
      <trkpt lat="43.78721" lon="18.12161">
        <ele>708.617307</ele>
        <time>2022-05-17T22:19:02.266Z</time>
      </trkpt>
      <trkpt lat="43.78708" lon="18.12232">
        <ele>707.323201</ele>
        <time>2022-05-17T22:19:14.058Z</time>
      </trkpt>
      <trkpt lat="43.78707" lon="18.12299">
        <ele>706.111026</ele>
        <time>2022-05-17T22:19:24.163Z</time>
      </trkpt>
      <trkpt lat="43.78711" lon="18.12335">
        <ele>704.832596</ele>
        <time>2022-05-17T22:19:29.619Z</time>
      </trkpt>
      <trkpt lat="43.78743" lon="18.12438">
        <ele>700.936459</ele>
        <time>2022-05-17T22:19:46.478Z</time>
      </trkpt>
      <trkpt lat="43.78756" lon="18.12468">
        <ele>699.722868</ele>
        <time>2022-05-17T22:19:51.887Z</time>
      </trkpt>
      <trkpt lat="43.7879" lon="18.12524">
        <ele>697.297035</ele>
        <time>2022-05-17T22:20:03.404Z</time>
      </trkpt>
      <trkpt lat="43.78816" lon="18.12554">
        <ele>696.209748</ele>
        <time>2022-05-17T22:20:11.138Z</time>
      </trkpt>
      <trkpt lat="43.78936" lon="18.12635">
        <ele>691.955203</ele>
        <time>2022-05-17T22:20:42.165Z</time>
      </trkpt>
      <trkpt lat="43.7897" lon="18.12678">
        <ele>690.435403</ele>
        <time>2022-05-17T22:20:52.585Z</time>
      </trkpt>
      <trkpt lat="43.78957" lon="18.12676">
        <ele>690.024637</ele>
        <time>2022-05-17T22:20:55.333Z</time>
      </trkpt>
      <trkpt lat="43.7894" lon="18.12656">
        <ele>689.262914</ele>
        <time>2022-05-17T22:21:00.929Z</time>
      </trkpt>
      <trkpt lat="43.78904" lon="18.1263">
        <ele>687.897346</ele>
        <time>2022-05-17T22:21:10.607Z</time>
      </trkpt>
      <trkpt lat="43.7889" lon="18.12629">
        <ele>687.424169</ele>
        <time>2022-05-17T22:21:13.806Z</time>
      </trkpt>
      <trkpt lat="43.78896" lon="18.12676">
        <ele>686.261048</ele>
        <time>2022-05-17T22:21:21.873Z</time>
      </trkpt>
      <trkpt lat="43.78839" lon="18.12799">
        <ele>682.46713</ele>
        <time>2022-05-17T22:21:46.116Z</time>
      </trkpt>
      <trkpt lat="43.78819" lon="18.12913">
        <ele>679.349159</ele>
        <time>2022-05-17T22:22:06.136Z</time>
      </trkpt>
      <trkpt lat="43.78821" lon="18.12927">
        <ele>678.996554</ele>
        <time>2022-05-17T22:22:08.480Z</time>
      </trkpt>
      <trkpt lat="43.78813" lon="18.12941">
        <ele>678.624515</ele>
        <time>2022-05-17T22:22:11.846Z</time>
      </trkpt>
      <trkpt lat="43.78827" lon="18.12977">
        <ele>677.782298</ele>
        <time>2022-05-17T22:22:18.486Z</time>
      </trkpt>
      <trkpt lat="43.78839" lon="18.13009">
        <ele>677.0286</ele>
        <time>2022-05-17T22:22:24.374Z</time>
      </trkpt>
      <trkpt lat="43.78871" lon="18.13091">
        <ele>675.096444</ele>
        <time>2022-05-17T22:22:40.102Z</time>
      </trkpt>
      <trkpt lat="43.78897" lon="18.13131">
        <ele>673.969361</ele>
        <time>2022-05-17T22:22:49.665Z</time>
      </trkpt>
      <trkpt lat="43.7897" lon="18.13188">
        <ele>671.7351</ele>
        <time>2022-05-17T22:23:09.672Z</time>
      </trkpt>
      <trkpt lat="43.79015" lon="18.13312">
        <ele>669.023035</ele>
        <time>2022-05-17T22:23:33.016Z</time>
      </trkpt>
      <trkpt lat="43.79022" lon="18.13368">
        <ele>667.546715</ele>
        <time>2022-05-17T22:23:42.316Z</time>
      </trkpt>
      <trkpt lat="43.78973" lon="18.13551">
        <ele>662.522781</ele>
        <time>2022-05-17T22:24:13.511Z</time>
      </trkpt>
      <trkpt lat="43.78971" lon="18.13584">
        <ele>661.904432</ele>
        <time>2022-05-17T22:24:18.899Z</time>
      </trkpt>
      <trkpt lat="43.78977" lon="18.13641">
        <ele>660.828734</ele>
        <time>2022-05-17T22:24:28.580Z</time>
      </trkpt>
      <trkpt lat="43.78982" lon="18.13673">
        <ele>660.212781</ele>
        <time>2022-05-17T22:24:34.296Z</time>
      </trkpt>
      <trkpt lat="43.78967" lon="18.1377">
        <ele>658.364666</ele>
        <time>2022-05-17T22:24:51.568Z</time>
      </trkpt>
      <trkpt lat="43.78968" lon="18.13808">
        <ele>657.864489</ele>
        <time>2022-05-17T22:24:58.223Z</time>
      </trkpt>
      <trkpt lat="43.78969" lon="18.13823">
        <ele>657.74867</ele>
        <time>2022-05-17T22:25:01.224Z</time>
      </trkpt>
      <trkpt lat="43.78979" lon="18.13843">
        <ele>657.572004</ele>
        <time>2022-05-17T22:25:05.843Z</time>
      </trkpt>
      <trkpt lat="43.78989" lon="18.13854">
        <ele>657.449954</ele>
        <time>2022-05-17T22:25:08.997Z</time>
      </trkpt>
      <trkpt lat="43.79006" lon="18.1386">
        <ele>657.274832</ele>
        <time>2022-05-17T22:25:13.960Z</time>
      </trkpt>
      <trkpt lat="43.78991" lon="18.13927">
        <ele>656.764116</ele>
        <time>2022-05-17T22:25:28.081Z</time>
      </trkpt>
      <trkpt lat="43.78959" lon="18.13996">
        <ele>656.185749</ele>
        <time>2022-05-17T22:25:44.681Z</time>
      </trkpt>
      <trkpt lat="43.78899" lon="18.14101">
        <ele>655.784366</ele>
        <time>2022-05-17T22:26:12.133Z</time>
      </trkpt>
      <trkpt lat="43.78874" lon="18.14155">
        <ele>655.592791</ele>
        <time>2022-05-17T22:26:26.703Z</time>
      </trkpt>
      <trkpt lat="43.78863" lon="18.14195">
        <ele>655.463137</ele>
        <time>2022-05-17T22:26:36.140Z</time>
      </trkpt>
      <trkpt lat="43.78847" lon="18.14222">
        <ele>655.290806</ele>
        <time>2022-05-17T22:26:43.557Z</time>
      </trkpt>
      <trkpt lat="43.78836" lon="18.14231">
        <ele>655.200697</ele>
        <time>2022-05-17T22:26:47.076Z</time>
      </trkpt>
      <trkpt lat="43.78827" lon="18.14233">
        <ele>655.133125</ele>
        <time>2022-05-17T22:26:49.799Z</time>
      </trkpt>
      <trkpt lat="43.78812" lon="18.14249">
        <ele>654.989062</ele>
        <time>2022-05-17T22:26:55.310Z</time>
      </trkpt>
      <trkpt lat="43.78725" lon="18.14366">
        <ele>654.091199</ele>
        <time>2022-05-17T22:27:28.567Z</time>
      </trkpt>
      <trkpt lat="43.78676" lon="18.14486">
        <ele>652.993692</ele>
        <time>2022-05-17T22:27:54.421Z</time>
      </trkpt>
      <trkpt lat="43.78644" lon="18.14579">
        <ele>652.17177</ele>
        <time>2022-05-17T22:28:14.695Z</time>
      </trkpt>
      <trkpt lat="43.78643" lon="18.14586">
        <ele>652.108643</ele>
        <time>2022-05-17T22:28:16.188Z</time>
      </trkpt>
      <trkpt lat="43.78641" lon="18.14616">
        <ele>651.832166</ele>
        <time>2022-05-17T22:28:22.159Z</time>
      </trkpt>
      <trkpt lat="43.78666" lon="18.14731">
        <ele>650.734771</ele>
        <time>2022-05-17T22:28:45.572Z</time>
      </trkpt>
      <trkpt lat="43.78669" lon="18.14745">
        <ele>650.609078</ele>
        <time>2022-05-17T22:28:48.252Z</time>
      </trkpt>
      <trkpt lat="43.78743" lon="18.14989">
        <ele>647.342007</ele>
        <time>2022-05-17T22:29:36.295Z</time>
      </trkpt>
      <trkpt lat="43.78764" lon="18.15078">
        <ele>646.040765</ele>
        <time>2022-05-17T22:29:52.464Z</time>
      </trkpt>
      <trkpt lat="43.78766" lon="18.15111">
        <ele>645.571616</ele>
        <time>2022-05-17T22:29:58.157Z</time>
      </trkpt>
      <trkpt lat="43.78757" lon="18.15312">
        <ele>642.819504</ele>
        <time>2022-05-17T22:30:34.364Z</time>
      </trkpt>
      <trkpt lat="43.78752" lon="18.15373">
        <ele>642.261308</ele>
        <time>2022-05-17T22:30:46.454Z</time>
      </trkpt>
      <trkpt lat="43.78716" lon="18.15565">
        <ele>640.332313</ele>
        <time>2022-05-17T22:31:24.634Z</time>
      </trkpt>
      <trkpt lat="43.78692" lon="18.15846">
        <ele>636.976461</ele>
        <time>2022-05-17T22:32:14.715Z</time>
      </trkpt>
      <trkpt lat="43.78681" lon="18.15986">
        <ele>636.099026</ele>
        <time>2022-05-17T22:32:42.517Z</time>
      </trkpt>
      <trkpt lat="43.78681" lon="18.16052">
        <ele>635.789909</ele>
        <time>2022-05-17T22:32:58.452Z</time>
      </trkpt>
      <trkpt lat="43.78681" lon="18.16058">
        <ele>635.791611</ele>
        <time>2022-05-17T22:32:59.790Z</time>
      </trkpt>
      <trkpt lat="43.78681" lon="18.16165">
        <ele>635.826584</ele>
        <time>2022-05-17T22:33:26.542Z</time>
      </trkpt>
      <trkpt lat="43.78671" lon="18.16277">
        <ele>635.863735</ele>
        <time>2022-05-17T22:33:52.038Z</time>
      </trkpt>
      <trkpt lat="43.7865" lon="18.16526">
        <ele>633.656527</ele>
        <time>2022-05-17T22:34:41.628Z</time>
      </trkpt>
      <trkpt lat="43.7864" lon="18.16573">
        <ele>633.044086</ele>
        <time>2022-05-17T22:34:50.606Z</time>
      </trkpt>
      <trkpt lat="43.7861" lon="18.16668">
        <ele>631.662276</ele>
        <time>2022-05-17T22:35:10.398Z</time>
      </trkpt>
      <trkpt lat="43.78595" lon="18.16702">
        <ele>631.139127</ele>
        <time>2022-05-17T22:35:17.993Z</time>
      </trkpt>
      <trkpt lat="43.786" lon="18.16715">
        <ele>630.958099</ele>
        <time>2022-05-17T22:35:24.840Z</time>
      </trkpt>
      <trkpt lat="43.78535" lon="18.16798">
        <ele>629.11232</ele>
        <time>2022-05-17T22:35:46.460Z</time>
      </trkpt>
      <trkpt lat="43.78506" lon="18.1686">
        <ele>627.899442</ele>
        <time>2022-05-17T22:35:59.323Z</time>
      </trkpt>
      <trkpt lat="43.78493" lon="18.16922">
        <ele>626.86268</ele>
        <time>2022-05-17T22:36:09.910Z</time>
      </trkpt>
      <trkpt lat="43.78483" lon="18.17046">
        <ele>626.933271</ele>
        <time>2022-05-17T22:36:32.451Z</time>
      </trkpt>
      <trkpt lat="43.78472" lon="18.17095">
        <ele>627.334887</ele>
        <time>2022-05-17T22:36:43.766Z</time>
      </trkpt>
      <trkpt lat="43.78466" lon="18.17112">
        <ele>627.478448</ele>
        <time>2022-05-17T22:36:48.811Z</time>
      </trkpt>
      <trkpt lat="43.7846" lon="18.17129">
        <ele>627.626712</ele>
        <time>2022-05-17T22:36:56.285Z</time>
      </trkpt>
      <trkpt lat="43.78445" lon="18.17169">
        <ele>627.982318</ele>
        <time>2022-05-17T22:37:17.578Z</time>
      </trkpt>
      <trkpt lat="43.78435" lon="18.17217">
        <ele>628.778878</ele>
        <time>2022-05-17T22:37:38.182Z</time>
      </trkpt>
      <trkpt lat="43.78433" lon="18.17251">
        <ele>629.677534</ele>
        <time>2022-05-17T22:37:49.509Z</time>
      </trkpt>
      <trkpt lat="43.7844" lon="18.17298">
        <ele>630.923171</ele>
        <time>2022-05-17T22:38:06.787Z</time>
      </trkpt>
      <trkpt lat="43.7847" lon="18.17353">
        <ele>632.71756</ele>
        <time>2022-05-17T22:38:35.507Z</time>
      </trkpt>
      <trkpt lat="43.78536" lon="18.17418">
        <ele>633.985656</ele>
        <time>2022-05-17T22:39:14.484Z</time>
      </trkpt>
      <trkpt lat="43.78563" lon="18.17466">
        <ele>632.868137</ele>
        <time>2022-05-17T22:39:29.479Z</time>
      </trkpt>
      <trkpt lat="43.78572" lon="18.17491">
        <ele>632.369906</ele>
        <time>2022-05-17T22:39:34.473Z</time>
      </trkpt>
      <trkpt lat="43.78576" lon="18.17507">
        <ele>632.053339</ele>
        <time>2022-05-17T22:39:36.968Z</time>
      </trkpt>
      <trkpt lat="43.78599" lon="18.17593">
        <ele>630.368736</ele>
        <time>2022-05-17T22:39:50.557Z</time>
      </trkpt>
      <trkpt lat="43.78649" lon="18.17776">
        <ele>620.675095</ele>
        <time>2022-05-17T22:40:18.910Z</time>
      </trkpt>
      <trkpt lat="43.78678" lon="18.17843">
        <ele>616.699842</ele>
        <time>2022-05-17T22:40:29.899Z</time>
      </trkpt>
      <trkpt lat="43.78714" lon="18.17897">
        <ele>613.840498</ele>
        <time>2022-05-17T22:40:40.413Z</time>
      </trkpt>
      <trkpt lat="43.78724" lon="18.1791">
        <ele>613.12648</ele>
        <time>2022-05-17T22:40:43.252Z</time>
      </trkpt>
      <trkpt lat="43.78741" lon="18.17927">
        <ele>611.98084</ele>
        <time>2022-05-17T22:40:47.615Z</time>
      </trkpt>
      <trkpt lat="43.78768" lon="18.17949">
        <ele>610.269613</ele>
        <time>2022-05-17T22:40:54.455Z</time>
      </trkpt>
      <trkpt lat="43.78803" lon="18.17967">
        <ele>608.280749</ele>
        <time>2022-05-17T22:41:02.523Z</time>
      </trkpt>
      <trkpt lat="43.78856" lon="18.17983">
        <ele>607.192396</ele>
        <time>2022-05-17T22:41:15.413Z</time>
      </trkpt>
      <trkpt lat="43.78951" lon="18.18007">
        <ele>606.662676</ele>
        <time>2022-05-17T22:41:46.580Z</time>
      </trkpt>
      <trkpt lat="43.79013" lon="18.18053">
        <ele>606.396521</ele>
        <time>2022-05-17T22:42:10.627Z</time>
      </trkpt>
      <trkpt lat="43.79047" lon="18.18083">
        <ele>606.364953</ele>
        <time>2022-05-17T22:42:23.394Z</time>
      </trkpt>
      <trkpt lat="43.79079" lon="18.18102">
        <ele>606.337583</ele>
        <time>2022-05-17T22:42:34.629Z</time>
      </trkpt>
      <trkpt lat="43.79116" lon="18.18116">
        <ele>606.307677</ele>
        <time>2022-05-17T22:42:46.443Z</time>
      </trkpt>
      <trkpt lat="43.79168" lon="18.18121">
        <ele>606.062045</ele>
        <time>2022-05-17T22:43:01.662Z</time>
      </trkpt>
      <trkpt lat="43.7922" lon="18.18105">
        <ele>604.992274</ele>
        <time>2022-05-17T22:43:15.962Z</time>
      </trkpt>
      <trkpt lat="43.79437" lon="18.17957">
        <ele>599.147816</ele>
        <time>2022-05-17T22:44:12.667Z</time>
      </trkpt>
      <trkpt lat="43.79479" lon="18.17939">
        <ele>597.916615</ele>
        <time>2022-05-17T22:44:22.625Z</time>
      </trkpt>
      <trkpt lat="43.79527" lon="18.1793">
        <ele>596.740838</ele>
        <time>2022-05-17T22:44:33.805Z</time>
      </trkpt>
      <trkpt lat="43.79583" lon="18.17933">
        <ele>595.437587</ele>
        <time>2022-05-17T22:44:47.111Z</time>
      </trkpt>
      <trkpt lat="43.79588" lon="18.17934">
        <ele>595.322051</ele>
        <time>2022-05-17T22:44:48.313Z</time>
      </trkpt>
      <trkpt lat="43.79615" lon="18.17942">
        <ele>594.67345</ele>
        <time>2022-05-17T22:44:55.007Z</time>
      </trkpt>
      <trkpt lat="43.79628" lon="18.17917">
        <ele>594.15434</ele>
        <time>2022-05-17T22:45:00.434Z</time>
      </trkpt>
      <trkpt lat="43.79723" lon="18.17873">
        <ele>592.838277</ele>
        <time>2022-05-17T22:45:26.880Z</time>
      </trkpt>
      <trkpt lat="43.79753" lon="18.17877">
        <ele>592.573389</ele>
        <time>2022-05-17T22:45:35.470Z</time>
      </trkpt>
      <trkpt lat="43.79809" lon="18.17907">
        <ele>592.039814</ele>
        <time>2022-05-17T22:45:52.485Z</time>
      </trkpt>
      <trkpt lat="43.79874" lon="18.17928">
        <ele>591.490545</ele>
        <time>2022-05-17T22:46:11.449Z</time>
      </trkpt>
      <trkpt lat="43.79915" lon="18.1795">
        <ele>591.144117</ele>
        <time>2022-05-17T22:46:23.785Z</time>
      </trkpt>
      <trkpt lat="43.79933" lon="18.17971">
        <ele>590.96263</ele>
        <time>2022-05-17T22:46:30.295Z</time>
      </trkpt>
      <trkpt lat="43.79995" lon="18.1807">
        <ele>590.124182</ele>
        <time>2022-05-17T22:46:56.107Z</time>
      </trkpt>
      <trkpt lat="43.80027" lon="18.18079">
        <ele>589.776835</ele>
        <time>2022-05-17T22:47:04.454Z</time>
      </trkpt>
      <trkpt lat="43.80119" lon="18.18064">
        <ele>588.763029</ele>
        <time>2022-05-17T22:47:28.860Z</time>
      </trkpt>
      <trkpt lat="43.80139" lon="18.1807">
        <ele>588.544078</ele>
        <time>2022-05-17T22:47:34.101Z</time>
      </trkpt>
      <trkpt lat="43.80223" lon="18.18125">
        <ele>588.64673</ele>
        <time>2022-05-17T22:48:02.173Z</time>
      </trkpt>
      <trkpt lat="43.80249" lon="18.18147">
        <ele>588.700102</ele>
        <time>2022-05-17T22:48:14.164Z</time>
      </trkpt>
      <trkpt lat="43.80263" lon="18.18167">
        <ele>588.733988</ele>
        <time>2022-05-17T22:48:21.356Z</time>
      </trkpt>
      <trkpt lat="43.80305" lon="18.18265">
        <ele>588.803494</ele>
        <time>2022-05-17T22:48:48.535Z</time>
      </trkpt>
      <trkpt lat="43.80331" lon="18.18317">
        <ele>588.801432</ele>
        <time>2022-05-17T22:49:03.873Z</time>
      </trkpt>
      <trkpt lat="43.80346" lon="18.18337">
        <ele>588.800513</ele>
        <time>2022-05-17T22:49:10.872Z</time>
      </trkpt>
      <trkpt lat="43.80388" lon="18.18375">
        <ele>588.798237</ele>
        <time>2022-05-17T22:49:26.405Z</time>
      </trkpt>
      <trkpt lat="43.8042" lon="18.18422">
        <ele>588.676981</ele>
        <time>2022-05-17T22:49:38.542Z</time>
      </trkpt>
      <trkpt lat="43.80491" lon="18.18507">
        <ele>588.213637</ele>
        <time>2022-05-17T22:50:02.434Z</time>
      </trkpt>
      <trkpt lat="43.80553" lon="18.18568">
        <ele>588.293479</ele>
        <time>2022-05-17T22:50:29.540Z</time>
      </trkpt>
      <trkpt lat="43.80573" lon="18.18587">
        <ele>588.928484</ele>
        <time>2022-05-17T22:50:40.484Z</time>
      </trkpt>
      <trkpt lat="43.80606" lon="18.18697">
        <ele>591.161617</ele>
        <time>2022-05-17T22:51:19.425Z</time>
      </trkpt>
      <trkpt lat="43.80625" lon="18.18721">
        <ele>591.842063</ele>
        <time>2022-05-17T22:51:33.715Z</time>
      </trkpt>
      <trkpt lat="43.80672" lon="18.18751">
        <ele>593.29717</ele>
        <time>2022-05-17T22:52:01.140Z</time>
      </trkpt>
      <trkpt lat="43.80695" lon="18.18774">
        <ele>594.17726</ele>
        <time>2022-05-17T22:52:14.232Z</time>
      </trkpt>
      <trkpt lat="43.80757" lon="18.18855">
        <ele>596.845458</ele>
        <time>2022-05-17T22:52:49.626Z</time>
      </trkpt>
      <trkpt lat="43.80782" lon="18.18874">
        <ele>597.724591</ele>
        <time>2022-05-17T22:53:03.730Z</time>
      </trkpt>
      <trkpt lat="43.80873" lon="18.18883">
        <ele>602.317407</ele>
        <time>2022-05-17T22:54:00.765Z</time>
      </trkpt>
      <trkpt lat="43.80902" lon="18.18901">
        <ele>604.010182</ele>
        <time>2022-05-17T22:54:20.674Z</time>
      </trkpt>
      <trkpt lat="43.80915" lon="18.18918">
        <ele>604.991152</ele>
        <time>2022-05-17T22:54:32.879Z</time>
      </trkpt>
      <trkpt lat="43.80929" lon="18.18939">
        <ele>606.11615</ele>
        <time>2022-05-17T22:54:46.062Z</time>
      </trkpt>
      <trkpt lat="43.80959" lon="18.18945">
        <ele>607.740908</ele>
        <time>2022-05-17T22:55:05.788Z</time>
      </trkpt>
      <trkpt lat="43.80992" lon="18.18959">
        <ele>608.672462</ele>
        <time>2022-05-17T22:55:28.118Z</time>
      </trkpt>
      <trkpt lat="43.81084" lon="18.19029">
        <ele>611.19962</ele>
        <time>2022-05-17T22:56:18.376Z</time>
      </trkpt>
      <trkpt lat="43.81127" lon="18.19052">
        <ele>612.20414</ele>
        <time>2022-05-17T22:56:30.344Z</time>
      </trkpt>
      <trkpt lat="43.81206" lon="18.19066">
        <ele>610.386392</ele>
        <time>2022-05-17T22:56:50.175Z</time>
      </trkpt>
      <trkpt lat="43.81236" lon="18.19073">
        <ele>609.700326</ele>
        <time>2022-05-17T22:56:57.541Z</time>
      </trkpt>
      <trkpt lat="43.81261" lon="18.19088">
        <ele>609.067543</ele>
        <time>2022-05-17T22:57:03.948Z</time>
      </trkpt>
      <trkpt lat="43.81316" lon="18.19142">
        <ele>606.511869</ele>
        <time>2022-05-17T22:57:18.816Z</time>
      </trkpt>
      <trkpt lat="43.81358" lon="18.19196">
        <ele>602.998988</ele>
        <time>2022-05-17T22:57:31.676Z</time>
      </trkpt>
      <trkpt lat="43.81385" lon="18.19219">
        <ele>601.021746</ele>
        <time>2022-05-17T22:57:38.353Z</time>
      </trkpt>
      <trkpt lat="43.81508" lon="18.19261">
        <ele>591.617348</ele>
        <time>2022-05-17T22:58:02.526Z</time>
      </trkpt>
      <trkpt lat="43.81588" lon="18.19304">
        <ele>584.164064</ele>
        <time>2022-05-17T22:58:18.632Z</time>
      </trkpt>
      <trkpt lat="43.8169" lon="18.19342">
        <ele>581.344342</ele>
        <time>2022-05-17T22:58:42.766Z</time>
      </trkpt>
      <trkpt lat="43.81725" lon="18.19369">
        <ele>581.324049</ele>
        <time>2022-05-17T22:58:59.911Z</time>
      </trkpt>
      <trkpt lat="43.81719" lon="18.19385">
        <ele>581.317335</ele>
        <time>2022-05-17T22:59:08.579Z</time>
      </trkpt>
      <trkpt lat="43.81763" lon="18.19402">
        <ele>581.294736</ele>
        <time>2022-05-17T22:59:32.297Z</time>
      </trkpt>
      <trkpt lat="43.81781" lon="18.19414">
        <ele>581.590545</ele>
        <time>2022-05-17T22:59:44.850Z</time>
      </trkpt>
      <trkpt lat="43.81803" lon="18.19447">
        <ele>582.295883</ele>
        <time>2022-05-17T23:00:03.485Z</time>
      </trkpt>
      <trkpt lat="43.81862" lon="18.19485">
        <ele>583.713433</ele>
        <time>2022-05-17T23:00:40.805Z</time>
      </trkpt>
      <trkpt lat="43.81935" lon="18.19554">
        <ele>584.018133</ele>
        <time>2022-05-17T23:01:06.653Z</time>
      </trkpt>
      <trkpt lat="43.82007" lon="18.1968">
        <ele>577.021852</ele>
        <time>2022-05-17T23:01:29.968Z</time>
      </trkpt>
      <trkpt lat="43.82026" lon="18.19731">
        <ele>574.527074</ele>
        <time>2022-05-17T23:01:37.993Z</time>
      </trkpt>
      <trkpt lat="43.82046" lon="18.19814">
        <ele>570.483939</ele>
        <time>2022-05-17T23:01:50.412Z</time>
      </trkpt>
      <trkpt lat="43.82081" lon="18.19899">
        <ele>565.942335</ele>
        <time>2022-05-17T23:02:04.546Z</time>
      </trkpt>
      <trkpt lat="43.82106" lon="18.19985">
        <ele>562.433733</ele>
        <time>2022-05-17T23:02:19.275Z</time>
      </trkpt>
      <trkpt lat="43.82129" lon="18.20035">
        <ele>561.57961</ele>
        <time>2022-05-17T23:02:28.810Z</time>
      </trkpt>
      <trkpt lat="43.82169" lon="18.20141">
        <ele>559.835609</ele>
        <time>2022-05-17T23:02:51.548Z</time>
      </trkpt>
      <trkpt lat="43.82174" lon="18.20162">
        <ele>559.513259</ele>
        <time>2022-05-17T23:02:56.251Z</time>
      </trkpt>
      <trkpt lat="43.82178" lon="18.20176">
        <ele>559.304271</ele>
        <time>2022-05-17T23:02:59.402Z</time>
      </trkpt>
      <trkpt lat="43.82181" lon="18.20189">
        <ele>559.158745</ele>
        <time>2022-05-17T23:03:02.224Z</time>
      </trkpt>
      <trkpt lat="43.82184" lon="18.20202">
        <ele>559.09003</ele>
        <time>2022-05-17T23:03:05.356Z</time>
      </trkpt>
      <trkpt lat="43.82185" lon="18.2021">
        <ele>559.050718</ele>
        <time>2022-05-17T23:03:07.053Z</time>
      </trkpt>
      <trkpt lat="43.82191" lon="18.20232">
        <ele>558.934131</ele>
        <time>2022-05-17T23:03:11.996Z</time>
      </trkpt>
      <trkpt lat="43.82198" lon="18.20265">
        <ele>558.764227</ele>
        <time>2022-05-17T23:03:19.431Z</time>
      </trkpt>
      <trkpt lat="43.8223" lon="18.20392">
        <ele>558.095668</ele>
        <time>2022-05-17T23:03:47.117Z</time>
      </trkpt>
      <trkpt lat="43.82272" lon="18.20557">
        <ele>556.506098</ele>
        <time>2022-05-17T23:04:19.453Z</time>
      </trkpt>
      <trkpt lat="43.82277" lon="18.20578">
        <ele>556.284046</ele>
        <time>2022-05-17T23:04:23.587Z</time>
      </trkpt>
      <trkpt lat="43.82282" lon="18.20598">
        <ele>556.076497</ele>
        <time>2022-05-17T23:04:27.305Z</time>
      </trkpt>
      <trkpt lat="43.82286" lon="18.20616">
        <ele>555.889537</ele>
        <time>2022-05-17T23:04:30.731Z</time>
      </trkpt>
      <trkpt lat="43.82286" lon="18.20625">
        <ele>555.800579</ele>
        <time>2022-05-17T23:04:32.394Z</time>
      </trkpt>
      <trkpt lat="43.82285" lon="18.2063">
        <ele>555.744511</ele>
        <time>2022-05-17T23:04:33.420Z</time>
      </trkpt>
      <trkpt lat="43.82283" lon="18.20652">
        <ele>555.525976</ele>
        <time>2022-05-17T23:04:37.489Z</time>
      </trkpt>
      <trkpt lat="43.82282" lon="18.20657">
        <ele>555.481488</ele>
        <time>2022-05-17T23:04:38.360Z</time>
      </trkpt>
      <trkpt lat="43.82288" lon="18.20674">
        <ele>555.414429</ele>
        <time>2022-05-17T23:04:42.156Z</time>
      </trkpt>
      <trkpt lat="43.8229" lon="18.20676">
        <ele>555.402098</ele>
        <time>2022-05-17T23:04:42.906Z</time>
      </trkpt>
      <trkpt lat="43.82299" lon="18.20691">
        <ele>555.340477</ele>
        <time>2022-05-17T23:04:46.622Z</time>
      </trkpt>
      <trkpt lat="43.82309" lon="18.20719">
        <ele>555.237406</ele>
        <time>2022-05-17T23:04:53.286Z</time>
      </trkpt>
      <trkpt lat="43.82331" lon="18.20775">
        <ele>555.033319</ele>
        <time>2022-05-17T23:05:07.463Z</time>
      </trkpt>
      <trkpt lat="43.82361" lon="18.20824">
        <ele>554.82372</ele>
        <time>2022-05-17T23:05:22.251Z</time>
      </trkpt>
      <trkpt lat="43.82444" lon="18.20902">
        <ele>553.759924</ele>
        <time>2022-05-17T23:05:51.024Z</time>
      </trkpt>
      <trkpt lat="43.82483" lon="18.2094">
        <ele>553.104563</ele>
        <time>2022-05-17T23:06:03.368Z</time>
      </trkpt>
      <trkpt lat="43.82525" lon="18.20961">
        <ele>552.476084</ele>
        <time>2022-05-17T23:06:14.641Z</time>
      </trkpt>
      <trkpt lat="43.82693" lon="18.21011">
        <ele>548.348755</ele>
        <time>2022-05-17T23:06:54.703Z</time>
      </trkpt>
      <trkpt lat="43.8271" lon="18.21012">
        <ele>547.900961</ele>
        <time>2022-05-17T23:06:58.847Z</time>
      </trkpt>
      <trkpt lat="43.82745" lon="18.21011">
        <ele>547.272753</ele>
        <time>2022-05-17T23:07:07.283Z</time>
      </trkpt>
      <trkpt lat="43.82793" lon="18.20999">
        <ele>546.600093</ele>
        <time>2022-05-17T23:07:19.423Z</time>
      </trkpt>
      <trkpt lat="43.82825" lon="18.21072">
        <ele>545.74817</ele>
        <time>2022-05-17T23:07:36.441Z</time>
      </trkpt>
      <trkpt lat="43.8288" lon="18.21101">
        <ele>545.073279</ele>
        <time>2022-05-17T23:07:53.836Z</time>
      </trkpt>
      <trkpt lat="43.82915" lon="18.21155">
        <ele>544.972687</ele>
        <time>2022-05-17T23:08:10.084Z</time>
      </trkpt>
      <trkpt lat="43.82969" lon="18.21326">
        <ele>544.794337</ele>
        <time>2022-05-17T23:08:53.485Z</time>
      </trkpt>
      <trkpt lat="43.82992" lon="18.21372">
        <ele>544.893104</ele>
        <time>2022-05-17T23:09:06.727Z</time>
      </trkpt>
      <trkpt lat="43.8304" lon="18.21439">
        <ele>545.058758</ele>
        <time>2022-05-17T23:09:28.612Z</time>
      </trkpt>
      <trkpt lat="43.8307" lon="18.21478">
        <ele>545.160127</ele>
        <time>2022-05-17T23:09:42.328Z</time>
      </trkpt>
      <trkpt lat="43.83199" lon="18.21509">
        <ele>548.3083</ele>
        <time>2022-05-17T23:10:35.704Z</time>
      </trkpt>
      <trkpt lat="43.83296" lon="18.21535">
        <ele>552.27972</ele>
        <time>2022-05-17T23:11:34.370Z</time>
      </trkpt>
      <trkpt lat="43.83349" lon="18.21566">
        <ele>555.839633</ele>
        <time>2022-05-17T23:12:16.552Z</time>
      </trkpt>
      <trkpt lat="43.83464" lon="18.21699">
        <ele>561.905399</ele>
        <time>2022-05-17T23:13:57.791Z</time>
      </trkpt>
      <trkpt lat="43.83522" lon="18.21756">
        <ele>562.856114</ele>
        <time>2022-05-17T23:14:21.478Z</time>
      </trkpt>
      <trkpt lat="43.83576" lon="18.21797">
        <ele>562.003019</ele>
        <time>2022-05-17T23:14:35.355Z</time>
      </trkpt>
      <trkpt lat="43.83608" lon="18.21813">
        <ele>559.508433</ele>
        <time>2022-05-17T23:14:42.037Z</time>
      </trkpt>
      <trkpt lat="43.83701" lon="18.21827">
        <ele>552.547051</ele>
        <time>2022-05-17T23:15:00.176Z</time>
      </trkpt>
      <trkpt lat="43.83777" lon="18.21808">
        <ele>546.839452</ele>
        <time>2022-05-17T23:15:15.244Z</time>
      </trkpt>
      <trkpt lat="43.83871" lon="18.21761">
        <ele>539.685748</ele>
        <time>2022-05-17T23:15:34.872Z</time>
      </trkpt>
      <trkpt lat="43.83925" lon="18.21714">
        <ele>536.377053</ele>
        <time>2022-05-17T23:15:48.586Z</time>
      </trkpt>
      <trkpt lat="43.83931" lon="18.21705">
        <ele>536.175762</ele>
        <time>2022-05-17T23:15:50.401Z</time>
      </trkpt>
      <trkpt lat="43.83946" lon="18.21667">
        <ele>535.392044</ele>
        <time>2022-05-17T23:15:57.620Z</time>
      </trkpt>
      <trkpt lat="43.83959" lon="18.21615">
        <ele>534.396735</ele>
        <time>2022-05-17T23:16:06.891Z</time>
      </trkpt>
      <trkpt lat="43.83986" lon="18.21624">
        <ele>533.71269</ele>
        <time>2022-05-17T23:16:13.802Z</time>
      </trkpt>
      <trkpt lat="43.84003" lon="18.2163">
        <ele>533.26873</ele>
        <time>2022-05-17T23:16:18.402Z</time>
      </trkpt>
      <trkpt lat="43.84065" lon="18.21659">
        <ele>533.011129</ele>
        <time>2022-05-17T23:16:38.993Z</time>
      </trkpt>
      <trkpt lat="43.84101" lon="18.21683">
        <ele>533.466436</ele>
        <time>2022-05-17T23:16:55.490Z</time>
      </trkpt>
      <trkpt lat="43.84091" lon="18.21716">
        <ele>533.760576</ele>
        <time>2022-05-17T23:17:07.840Z</time>
      </trkpt>
      <trkpt lat="43.84079" lon="18.21725">
        <ele>533.911544</ele>
        <time>2022-05-17T23:17:12.815Z</time>
      </trkpt>
      <trkpt lat="43.83994" lon="18.2172">
        <ele>534.585885</ele>
        <time>2022-05-17T23:17:47.515Z</time>
      </trkpt>
      <trkpt lat="43.8399" lon="18.2173">
        <ele>534.570471</ele>
        <time>2022-05-17T23:17:51.697Z</time>
      </trkpt>
      <trkpt lat="43.83993" lon="18.21739">
        <ele>534.556266</ele>
        <time>2022-05-17T23:17:53.830Z</time>
      </trkpt>
      <trkpt lat="43.84077" lon="18.21743">
        <ele>534.392935</ele>
        <time>2022-05-17T23:18:19.704Z</time>
      </trkpt>
      <trkpt lat="43.84116" lon="18.21756">
        <ele>534.314023</ele>
        <time>2022-05-17T23:18:31.265Z</time>
      </trkpt>
      <trkpt lat="43.84154" lon="18.21774">
        <ele>533.869611</ele>
        <time>2022-05-17T23:18:42.146Z</time>
      </trkpt>
      <trkpt lat="43.84189" lon="18.21799">
        <ele>533.122179</ele>
        <time>2022-05-17T23:18:52.115Z</time>
      </trkpt>
      <trkpt lat="43.84229" lon="18.21838">
        <ele>532.192339</ele>
        <time>2022-05-17T23:19:04.558Z</time>
      </trkpt>
      <trkpt lat="43.84262" lon="18.21883">
        <ele>531.333395</ele>
        <time>2022-05-17T23:19:16.159Z</time>
      </trkpt>
      <trkpt lat="43.84291" lon="18.21936">
        <ele>530.578066</ele>
        <time>2022-05-17T23:19:29.198Z</time>
      </trkpt>
      <trkpt lat="43.84512" lon="18.22373">
        <ele>525.849507</ele>
        <time>2022-05-17T23:21:16.260Z</time>
      </trkpt>
      <trkpt lat="43.84521" lon="18.22391">
        <ele>525.63105</ele>
        <time>2022-05-17T23:21:20.268Z</time>
      </trkpt>
      <trkpt lat="43.84551" lon="18.22465">
        <ele>524.800363</ele>
        <time>2022-05-17T23:21:36.943Z</time>
      </trkpt>
      <trkpt lat="43.8459" lon="18.22629">
        <ele>523.146837</ele>
        <time>2022-05-17T23:22:10.935Z</time>
      </trkpt>
      <trkpt lat="43.84601" lon="18.2273">
        <ele>522.192154</ele>
        <time>2022-05-17T23:22:31.546Z</time>
      </trkpt>
      <trkpt lat="43.84608" lon="18.22849">
        <ele>520.95457</ele>
        <time>2022-05-17T23:22:54.805Z</time>
      </trkpt>
      <trkpt lat="43.84628" lon="18.23133">
        <ele>518.300657</ele>
        <time>2022-05-17T23:23:49.791Z</time>
      </trkpt>
      <trkpt lat="43.84631" lon="18.23179">
        <ele>517.996279</ele>
        <time>2022-05-17T23:23:59.404Z</time>
      </trkpt>
      <trkpt lat="43.84638" lon="18.23257">
        <ele>517.481233</ele>
        <time>2022-05-17T23:24:16.770Z</time>
      </trkpt>
      <trkpt lat="43.84643" lon="18.2333">
        <ele>517.344164</ele>
        <time>2022-05-17T23:24:33.595Z</time>
      </trkpt>
      <trkpt lat="43.84652" lon="18.23458">
        <ele>517.295728</ele>
        <time>2022-05-17T23:25:03.792Z</time>
      </trkpt>
      <trkpt lat="43.84672" lon="18.23708">
        <ele>517.177486</ele>
        <time>2022-05-17T23:26:02.241Z</time>
      </trkpt>
      <trkpt lat="43.84679" lon="18.23796">
        <ele>517.170504</ele>
        <time>2022-05-17T23:26:22.294Z</time>
      </trkpt>
      <trkpt lat="43.84681" lon="18.23888">
        <ele>517.259587</ele>
        <time>2022-05-17T23:26:43.827Z</time>
      </trkpt>
      <trkpt lat="43.84677" lon="18.23951">
        <ele>517.319948</ele>
        <time>2022-05-17T23:26:59.512Z</time>
      </trkpt>
      <trkpt lat="43.84664" lon="18.24018">
        <ele>517.387255</ele>
        <time>2022-05-17T23:27:16.640Z</time>
      </trkpt>
      <trkpt lat="43.84643" lon="18.24097">
        <ele>517.501005</ele>
        <time>2022-05-17T23:27:37.291Z</time>
      </trkpt>
      <trkpt lat="43.84613" lon="18.24173">
        <ele>517.617178</ele>
        <time>2022-05-17T23:27:58.258Z</time>
      </trkpt>
      <trkpt lat="43.84617" lon="18.24193">
        <ele>517.644775</ele>
        <time>2022-05-17T23:28:03.417Z</time>
      </trkpt>
      <trkpt lat="43.84633" lon="18.24204">
        <ele>517.679895</ele>
        <time>2022-05-17T23:28:09.479Z</time>
      </trkpt>
      <trkpt lat="43.84649" lon="18.24195">
        <ele>517.712253</ele>
        <time>2022-05-17T23:28:15.604Z</time>
      </trkpt>
      <trkpt lat="43.84662" lon="18.24132">
        <ele>517.446784</ele>
        <time>2022-05-17T23:28:30.265Z</time>
      </trkpt>
      <trkpt lat="43.84688" lon="18.24046">
        <ele>517.008119</ele>
        <time>2022-05-17T23:28:50.360Z</time>
      </trkpt>
      <trkpt lat="43.84694" lon="18.24039">
        <ele>516.958171</ele>
        <time>2022-05-17T23:28:52.373Z</time>
      </trkpt>
      <trkpt lat="43.84752" lon="18.24024">
        <ele>516.57258</ele>
        <time>2022-05-17T23:29:09.391Z</time>
      </trkpt>
      <trkpt lat="43.84757" lon="18.24069">
        <ele>516.170867</ele>
        <time>2022-05-17T23:29:17.879Z</time>
      </trkpt>
      <trkpt lat="43.84768" lon="18.24161">
        <ele>515.301849</ele>
        <time>2022-05-17T23:29:34.938Z</time>
      </trkpt>
      <trkpt lat="43.84771" lon="18.24188">
        <ele>515.044575</ele>
        <time>2022-05-17T23:29:40.209Z</time>
      </trkpt>
      <trkpt lat="43.84788" lon="18.24288">
        <ele>514.132727</ele>
        <time>2022-05-17T23:29:59.828Z</time>
      </trkpt>
      <trkpt lat="43.84791" lon="18.24351">
        <ele>513.739554</ele>
        <time>2022-05-17T23:30:12.136Z</time>
      </trkpt>
      <trkpt lat="43.8478" lon="18.24373">
        <ele>513.57742</ele>
        <time>2022-05-17T23:30:17.364Z</time>
      </trkpt>
      <trkpt lat="43.84762" lon="18.24392">
        <ele>513.38268</ele>
        <time>2022-05-17T23:30:23.449Z</time>
      </trkpt>
      <trkpt lat="43.84711" lon="18.24505">
        <ele>512.68179</ele>
        <time>2022-05-17T23:30:50.404Z</time>
      </trkpt>
      <trkpt lat="43.84689" lon="18.24553">
        <ele>512.681063</ele>
        <time>2022-05-17T23:31:02.450Z</time>
      </trkpt>
      <trkpt lat="43.84664" lon="18.24607">
        <ele>512.680222</ele>
        <time>2022-05-17T23:31:17.186Z</time>
      </trkpt>
      <trkpt lat="43.84654" lon="18.24632">
        <ele>512.679852</ele>
        <time>2022-05-17T23:31:23.414Z</time>
      </trkpt>
      <trkpt lat="43.84646" lon="18.24686">
        <ele>512.679128</ele>
        <time>2022-05-17T23:31:36.340Z</time>
      </trkpt>
      <trkpt lat="43.84576" lon="18.24777">
        <ele>513.776419</ele>
        <time>2022-05-17T23:32:11.254Z</time>
      </trkpt>
      <trkpt lat="43.84569" lon="18.24773">
        <ele>513.890362</ele>
        <time>2022-05-17T23:32:14.498Z</time>
      </trkpt>
      <trkpt lat="43.84566" lon="18.24763">
        <ele>513.997928</ele>
        <time>2022-05-17T23:32:17.697Z</time>
      </trkpt>
      <trkpt lat="43.84565" lon="18.2469">
        <ele>514.739482</ele>
        <time>2022-05-17T23:32:39.738Z</time>
      </trkpt>
      <trkpt lat="43.84554" lon="18.24636">
        <ele>515.296951</ele>
        <time>2022-05-17T23:32:56.780Z</time>
      </trkpt>
      <trkpt lat="43.84558" lon="18.24585">
        <ele>515.720835</ele>
        <time>2022-05-17T23:33:12.109Z</time>
      </trkpt>
      <trkpt lat="43.84548" lon="18.24567">
        <ele>515.896474</ele>
        <time>2022-05-17T23:33:18.417Z</time>
      </trkpt>
      <trkpt lat="43.84529" lon="18.24553">
        <ele>516.14197</ele>
        <time>2022-05-17T23:33:27.179Z</time>
      </trkpt>
      <trkpt lat="43.84502" lon="18.24534">
        <ele>516.489998</ele>
        <time>2022-05-17T23:33:39.207Z</time>
      </trkpt>
      <trkpt lat="43.84485" lon="18.24534">
        <ele>516.674023</ele>
        <time>2022-05-17T23:33:45.320Z</time>
      </trkpt>
      <trkpt lat="43.84464" lon="18.2458">
        <ele>517.119598</ele>
        <time>2022-05-17T23:33:58.480Z</time>
      </trkpt>
      <trkpt lat="43.84429" lon="18.24711">
        <ele>517.416862</ele>
        <time>2022-05-17T23:34:28.620Z</time>
      </trkpt>
      <trkpt lat="43.84425" lon="18.24741">
        <ele>517.456349</ele>
        <time>2022-05-17T23:34:34.881Z</time>
      </trkpt>
      <trkpt lat="43.84443" lon="18.24797">
        <ele>517.535965</ele>
        <time>2022-05-17T23:34:50.563Z</time>
      </trkpt>
      <trkpt lat="43.84445" lon="18.2487">
        <ele>517.53931</ele>
        <time>2022-05-17T23:35:08.971Z</time>
      </trkpt>
      <trkpt lat="43.84436" lon="18.24933">
        <ele>517.46839</ele>
        <time>2022-05-17T23:35:24.462Z</time>
      </trkpt>
      <trkpt lat="43.84418" lon="18.24987">
        <ele>517.402919</ele>
        <time>2022-05-17T23:35:39.891Z</time>
      </trkpt>
      <trkpt lat="43.84412" lon="18.25004">
        <ele>517.382672</ele>
        <time>2022-05-17T23:35:43.331Z</time>
      </trkpt>
      <trkpt lat="43.84415" lon="18.25047">
        <ele>517.334381</ele>
        <time>2022-05-17T23:35:51.987Z</time>
      </trkpt>
      <trkpt lat="43.84409" lon="18.25071">
        <ele>517.306364</ele>
        <time>2022-05-17T23:35:56.482Z</time>
      </trkpt>
      <trkpt lat="43.84368" lon="18.25173">
        <ele>514.895168</ele>
        <time>2022-05-17T23:36:17.098Z</time>
      </trkpt>
      <trkpt lat="43.84356" lon="18.25185">
        <ele>514.482942</ele>
        <time>2022-05-17T23:36:20.110Z</time>
      </trkpt>
      <trkpt lat="43.84347" lon="18.25189">
        <ele>514.21573</ele>
        <time>2022-05-17T23:36:22.330Z</time>
      </trkpt>
      <trkpt lat="43.84205" lon="18.25385">
        <ele>508.450667</ele>
        <time>2022-05-17T23:37:09.508Z</time>
      </trkpt>
      <trkpt lat="43.84173" lon="18.25432">
        <ele>507.088596</ele>
        <time>2022-05-17T23:37:42.374Z</time>
      </trkpt>
      <trkpt lat="43.84158" lon="18.25417">
        <ele>506.869695</ele>
        <time>2022-05-17T23:37:55.178Z</time>
      </trkpt>
      <trkpt lat="43.84076" lon="18.25531">
        <ele>506.101691</ele>
        <time>2022-05-17T23:38:28.106Z</time>
      </trkpt>
      <trkpt lat="43.84037" lon="18.25578">
        <ele>505.7872</ele>
        <time>2022-05-17T23:38:43.862Z</time>
      </trkpt>
      <trkpt lat="43.83991" lon="18.2562">
        <ele>506.264436</ele>
        <time>2022-05-17T23:39:00.475Z</time>
      </trkpt>
      <trkpt lat="43.8386" lon="18.25801">
        <ele>509.246527</ele>
        <time>2022-05-17T23:40:12.005Z</time>
      </trkpt>
      <trkpt lat="43.83709" lon="18.26014">
        <ele>515.397943</ele>
        <time>2022-05-17T23:42:08.092Z</time>
      </trkpt>
      <trkpt lat="43.83691" lon="18.26049">
        <ele>516.183874</ele>
        <time>2022-05-17T23:42:22.238Z</time>
      </trkpt>
      <trkpt lat="43.83669" lon="18.26128">
        <ele>517.228489</ele>
        <time>2022-05-17T23:42:44.580Z</time>
      </trkpt>
      <trkpt lat="43.83637" lon="18.26284">
        <ele>514.1472</ele>
        <time>2022-05-17T23:43:12.306Z</time>
      </trkpt>
      <trkpt lat="43.83615" lon="18.26316">
        <ele>513.328269</ele>
        <time>2022-05-17T23:43:18.896Z</time>
      </trkpt>
      <trkpt lat="43.83508" lon="18.26433">
        <ele>509.543362</ele>
        <time>2022-05-17T23:43:48.895Z</time>
      </trkpt>
      <trkpt lat="43.83461" lon="18.26518">
        <ele>507.837298</ele>
        <time>2022-05-17T23:44:09.504Z</time>
      </trkpt>
      <trkpt lat="43.83405" lon="18.2665">
        <ele>508.546756</ele>
        <time>2022-05-17T23:44:50.815Z</time>
      </trkpt>
      <trkpt lat="43.83364" lon="18.26698">
        <ele>508.891605</ele>
        <time>2022-05-17T23:45:11.317Z</time>
      </trkpt>
      <trkpt lat="43.83329" lon="18.26746">
        <ele>508.330949</ele>
        <time>2022-05-17T23:45:28.469Z</time>
      </trkpt>
      <trkpt lat="43.83206" lon="18.26895">
        <ele>505.580306</ele>
        <time>2022-05-17T23:46:08.929Z</time>
      </trkpt>
      <trkpt lat="43.83185" lon="18.26916">
        <ele>504.632725</ele>
        <time>2022-05-17T23:46:14.624Z</time>
      </trkpt>
      <trkpt lat="43.83123" lon="18.26997">
        <ele>501.555765</ele>
        <time>2022-05-17T23:46:33.100Z</time>
      </trkpt>
      <trkpt lat="43.83087" lon="18.27075">
        <ele>499.470747</ele>
        <time>2022-05-17T23:46:47.835Z</time>
      </trkpt>
      <trkpt lat="43.83063" lon="18.27176">
        <ele>497.600424</ele>
        <time>2022-05-17T23:47:05.377Z</time>
      </trkpt>
      <trkpt lat="43.8306" lon="18.27196">
        <ele>497.22781</ele>
        <time>2022-05-17T23:47:09.095Z</time>
      </trkpt>
      <trkpt lat="43.83054" lon="18.27226">
        <ele>496.691158</ele>
        <time>2022-05-17T23:47:14.609Z</time>
      </trkpt>
      <trkpt lat="43.83045" lon="18.27306">
        <ele>495.733957</ele>
        <time>2022-05-17T23:47:30.881Z</time>
      </trkpt>
      <trkpt lat="43.83042" lon="18.27337">
        <ele>495.713048</ele>
        <time>2022-05-17T23:47:37.688Z</time>
      </trkpt>
      <trkpt lat="43.83041" lon="18.27359">
        <ele>495.697905</ele>
        <time>2022-05-17T23:47:42.489Z</time>
      </trkpt>
      <trkpt lat="43.83042" lon="18.2737">
        <ele>495.69077</ele>
        <time>2022-05-17T23:47:45.123Z</time>
      </trkpt>
      <trkpt lat="43.8305" lon="18.27459">
        <ele>495.63038</ele>
        <time>2022-05-17T23:48:05.558Z</time>
      </trkpt>
      <trkpt lat="43.83062" lon="18.27509">
        <ele>495.594688</ele>
        <time>2022-05-17T23:48:17.574Z</time>
      </trkpt>
      <trkpt lat="43.83092" lon="18.27587">
        <ele>495.874162</ele>
        <time>2022-05-17T23:48:39.476Z</time>
      </trkpt>
      <trkpt lat="43.83124" lon="18.27653">
        <ele>496.187769</ele>
        <time>2022-05-17T23:49:00.064Z</time>
      </trkpt>
      <trkpt lat="43.8314" lon="18.27682">
        <ele>496.331378</ele>
        <time>2022-05-17T23:49:08.848Z</time>
      </trkpt>
      <trkpt lat="43.8316" lon="18.27719">
        <ele>496.509931</ele>
        <time>2022-05-17T23:49:20.009Z</time>
      </trkpt>
      <trkpt lat="43.83198" lon="18.27824">
        <ele>496.653647</ele>
        <time>2022-05-17T23:49:48.571Z</time>
      </trkpt>
      <trkpt lat="43.83207" lon="18.27858">
        <ele>496.685816</ele>
        <time>2022-05-17T23:49:56.896Z</time>
      </trkpt>
      <trkpt lat="43.8321" lon="18.27869">
        <ele>496.696081</ele>
        <time>2022-05-17T23:49:59.414Z</time>
      </trkpt>
      <trkpt lat="43.83221" lon="18.27918">
        <ele>496.741835</ele>
        <time>2022-05-17T23:50:11.036Z</time>
      </trkpt>
      <trkpt lat="43.83232" lon="18.27997">
        <ele>496.639359</ele>
        <time>2022-05-17T23:50:28.283Z</time>
      </trkpt>
      <trkpt lat="43.83239" lon="18.28066">
        <ele>496.357658</ele>
        <time>2022-05-17T23:50:42.633Z</time>
      </trkpt>
      <trkpt lat="43.83241" lon="18.28085">
        <ele>496.276711</ele>
        <time>2022-05-17T23:50:46.854Z</time>
      </trkpt>
      <trkpt lat="43.83247" lon="18.2824">
        <ele>495.593478</ele>
        <time>2022-05-17T23:51:17.636Z</time>
      </trkpt>
      <trkpt lat="43.83167" lon="18.2859">
        <ele>493.419708</ele>
        <time>2022-05-17T23:52:34.134Z</time>
      </trkpt>
      <trkpt lat="43.8315" lon="18.2863">
        <ele>493.147329</ele>
        <time>2022-05-17T23:52:44.158Z</time>
      </trkpt>
      <trkpt lat="43.83149" lon="18.28633">
        <ele>493.13136</ele>
        <time>2022-05-17T23:52:44.616Z</time>
      </trkpt>
      <trkpt lat="43.8314" lon="18.28678">
        <ele>492.855282</ele>
        <time>2022-05-17T23:52:54.441Z</time>
      </trkpt>
      <trkpt lat="43.83137" lon="18.28845">
        <ele>492.189321</ele>
        <time>2022-05-17T23:53:29.506Z</time>
      </trkpt>
      <trkpt lat="43.8313" lon="18.28914">
        <ele>491.916652</ele>
        <time>2022-05-17T23:53:44.944Z</time>
      </trkpt>
      <trkpt lat="43.83109" lon="18.29064">
        <ele>491.816202</ele>
        <time>2022-05-17T23:54:19.923Z</time>
      </trkpt>
      <trkpt lat="43.83097" lon="18.29101">
        <ele>491.808011</ele>
        <time>2022-05-17T23:54:29.118Z</time>
      </trkpt>
      <trkpt lat="43.83046" lon="18.29255">
        <ele>491.915953</ele>
        <time>2022-05-17T23:55:08.699Z</time>
      </trkpt>
      <trkpt lat="43.83011" lon="18.29373">
        <ele>492.080105</ele>
        <time>2022-05-17T23:55:37.806Z</time>
      </trkpt>
      <trkpt lat="43.8301" lon="18.29379">
        <ele>492.087738</ele>
        <time>2022-05-17T23:55:39.097Z</time>
      </trkpt>
      <trkpt lat="43.82989" lon="18.29507">
        <ele>492.730004</ele>
        <time>2022-05-17T23:56:10.717Z</time>
      </trkpt>
      <trkpt lat="43.82987" lon="18.29539">
        <ele>492.904906</ele>
        <time>2022-05-17T23:56:18.969Z</time>
      </trkpt>
      <trkpt lat="43.82986" lon="18.29554">
        <ele>492.990271</ele>
        <time>2022-05-17T23:56:22.886Z</time>
      </trkpt>
      <trkpt lat="43.82987" lon="18.29685">
        <ele>493.853559</ele>
        <time>2022-05-17T23:56:58.469Z</time>
      </trkpt>
      <trkpt lat="43.82999" lon="18.29774">
        <ele>494.679555</ele>
        <time>2022-05-17T23:57:23.850Z</time>
      </trkpt>
      <trkpt lat="43.83023" lon="18.29888">
        <ele>495.763333</ele>
        <time>2022-05-17T23:57:56.553Z</time>
      </trkpt>
      <trkpt lat="43.83037" lon="18.2993">
        <ele>496.009021</ele>
        <time>2022-05-17T23:58:09.567Z</time>
      </trkpt>
      <trkpt lat="43.83053" lon="18.2997">
        <ele>496.249254</ele>
        <time>2022-05-17T23:58:21.845Z</time>
      </trkpt>
      <trkpt lat="43.8306" lon="18.29987">
        <ele>496.346248</ele>
        <time>2022-05-17T23:58:26.476Z</time>
      </trkpt>
      <trkpt lat="43.83121" lon="18.30139">
        <ele>497.056803</ele>
        <time>2022-05-17T23:59:09.086Z</time>
      </trkpt>
      <trkpt lat="43.83145" lon="18.30199">
        <ele>497.029676</ele>
        <time>2022-05-17T23:59:24.244Z</time>
      </trkpt>
      <trkpt lat="43.83147" lon="18.30201">
        <ele>497.028425</ele>
        <time>2022-05-17T23:59:24.956Z</time>
      </trkpt>
      <trkpt lat="43.83149" lon="18.30218">
        <ele>497.021671</ele>
        <time>2022-05-17T23:59:28.752Z</time>
      </trkpt>
      <trkpt lat="43.83149" lon="18.30223">
        <ele>497.019757</ele>
        <time>2022-05-17T23:59:29.824Z</time>
      </trkpt>
      <trkpt lat="43.83149" lon="18.30225">
        <ele>497.018765</ele>
        <time>2022-05-17T23:59:30.364Z</time>
      </trkpt>
      <trkpt lat="43.83143" lon="18.30245">
        <ele>497.010462</ele>
        <time>2022-05-17T23:59:35.092Z</time>
      </trkpt>
      <trkpt lat="43.83108" lon="18.30395">
        <ele>496.98012</ele>
        <time>2022-05-18T00:00:08.816Z</time>
      </trkpt>
      <trkpt lat="43.83068" lon="18.30489">
        <ele>496.993509</ele>
        <time>2022-05-18T00:00:33.176Z</time>
      </trkpt>
      <trkpt lat="43.83031" lon="18.30534">
        <ele>497.001913</ele>
        <time>2022-05-18T00:00:49.382Z</time>
      </trkpt>
      <trkpt lat="43.83078" lon="18.30623">
        <ele>497.210835</ele>
        <time>2022-05-18T00:01:15.640Z</time>
      </trkpt>
      <trkpt lat="43.8313" lon="18.30717">
        <ele>497.455008</ele>
        <time>2022-05-18T00:01:43.502Z</time>
      </trkpt>
      <trkpt lat="43.83159" lon="18.3077">
        <ele>497.525618</ele>
        <time>2022-05-18T00:01:59.215Z</time>
      </trkpt>
      <trkpt lat="43.83154" lon="18.30775">
        <ele>497.526348</ele>
        <time>2022-05-18T00:02:01.474Z</time>
      </trkpt>
      <trkpt lat="43.83156" lon="18.30779">
        <ele>497.526825</ele>
        <time>2022-05-18T00:02:02.665Z</time>
      </trkpt>
      <trkpt lat="43.83159" lon="18.30784">
        <ele>497.527492</ele>
        <time>2022-05-18T00:02:04.306Z</time>
      </trkpt>
      <trkpt lat="43.83182" lon="18.30833">
        <ele>497.533165</ele>
        <time>2022-05-18T00:02:18.188Z</time>
      </trkpt>
      <trkpt lat="43.83181" lon="18.30845">
        <ele>497.534378</ele>
        <time>2022-05-18T00:02:21.107Z</time>
      </trkpt>
      <trkpt lat="43.83165" lon="18.30881">
        <ele>497.538509</ele>
        <time>2022-05-18T00:02:30.780Z</time>
      </trkpt>
      <trkpt lat="43.83167" lon="18.30911">
        <ele>497.54149</ele>
        <time>2022-05-18T00:02:37.584Z</time>
      </trkpt>
      <trkpt lat="43.83161" lon="18.30925">
        <ele>497.543083</ele>
        <time>2022-05-18T00:02:41.154Z</time>
      </trkpt>
      <trkpt lat="43.83166" lon="18.3093">
        <ele>497.543948</ele>
        <time>2022-05-18T00:02:45.627Z</time>
      </trkpt>
      <trkpt lat="43.83173" lon="18.30939">
        <ele>497.545287</ele>
        <time>2022-05-18T00:02:52.472Z</time>
      </trkpt>
      <trkpt lat="43.83214" lon="18.30936">
        <ele>497.558043</ele>
        <time>2022-05-18T00:03:05.438Z</time>
      </trkpt>
      <trkpt lat="43.83222" lon="18.30941">
        <ele>497.561596</ele>
        <time>2022-05-18T00:03:08.470Z</time>
      </trkpt>
      <trkpt lat="43.83368" lon="18.31215">
        <ele>497.821983</ele>
        <time>2022-05-18T00:04:29.357Z</time>
      </trkpt>
      <trkpt lat="43.83308" lon="18.31388">
        <ele>498.169251</ele>
        <time>2022-05-18T00:05:15.248Z</time>
      </trkpt>
      <trkpt lat="43.83245" lon="18.31566">
        <ele>498.65376</ele>
        <time>2022-05-18T00:06:02.185Z</time>
      </trkpt>
      <trkpt lat="43.83222" lon="18.31681">
        <ele>499.037446</ele>
        <time>2022-05-18T00:06:30.883Z</time>
      </trkpt>
      <trkpt lat="43.83222" lon="18.31801">
        <ele>499.47806</ele>
        <time>2022-05-18T00:07:00.896Z</time>
      </trkpt>
      <trkpt lat="43.83215" lon="18.31956">
        <ele>500.289946</ele>
        <time>2022-05-18T00:07:38.758Z</time>
      </trkpt>
      <trkpt lat="43.83241" lon="18.32119">
        <ele>501.334582</ele>
        <time>2022-05-18T00:08:24.274Z</time>
      </trkpt>
      <trkpt lat="43.83241" lon="18.32126">
        <ele>501.383254</ele>
        <time>2022-05-18T00:08:26.227Z</time>
      </trkpt>
      <trkpt lat="43.83242" lon="18.32136">
        <ele>501.454809</ele>
        <time>2022-05-18T00:08:29.133Z</time>
      </trkpt>
      <trkpt lat="43.83236" lon="18.32178">
        <ele>501.747452</ele>
        <time>2022-05-18T00:08:40.211Z</time>
      </trkpt>
      <trkpt lat="43.83228" lon="18.32227">
        <ele>502.096357</ele>
        <time>2022-05-18T00:08:53.188Z</time>
      </trkpt>
      <trkpt lat="43.83222" lon="18.32278">
        <ele>502.359756</ele>
        <time>2022-05-18T00:09:06.508Z</time>
      </trkpt>
      <trkpt lat="43.83214" lon="18.32329">
        <ele>502.357069</ele>
        <time>2022-05-18T00:09:19.446Z</time>
      </trkpt>
      <trkpt lat="43.83213" lon="18.32335">
        <ele>502.356747</ele>
        <time>2022-05-18T00:09:20.933Z</time>
      </trkpt>
      <trkpt lat="43.83301" lon="18.32406">
        <ele>502.349526</ele>
        <time>2022-05-18T00:09:51.805Z</time>
      </trkpt>
      <trkpt lat="43.83342" lon="18.3244">
        <ele>502.324392</ele>
        <time>2022-05-18T00:10:05.033Z</time>
      </trkpt>
      <trkpt lat="43.83388" lon="18.32479">
        <ele>502.266987</ele>
        <time>2022-05-18T00:10:20.308Z</time>
      </trkpt>
      <trkpt lat="43.83418" lon="18.32504">
        <ele>502.22972</ele>
        <time>2022-05-18T00:10:30.860Z</time>
      </trkpt>
      <trkpt lat="43.83483" lon="18.32574">
        <ele>502.240904</ele>
        <time>2022-05-18T00:10:57.916Z</time>
      </trkpt>
      <trkpt lat="43.83528" lon="18.3261">
        <ele>502.585427</ele>
        <time>2022-05-18T00:11:16.133Z</time>
      </trkpt>
      <trkpt lat="43.83541" lon="18.3263">
        <ele>502.711824</ele>
        <time>2022-05-18T00:11:23.210Z</time>
      </trkpt>
      <trkpt lat="43.83547" lon="18.3263">
        <ele>502.755616</ele>
        <time>2022-05-18T00:11:25.533Z</time>
      </trkpt>
      <trkpt lat="43.83576" lon="18.32597">
        <ele>503.000729</ele>
        <time>2022-05-18T00:11:38.533Z</time>
      </trkpt>
      <trkpt lat="43.83612" lon="18.32646">
        <ele>503.337541</ele>
        <time>2022-05-18T00:11:56.198Z</time>
      </trkpt>
      <trkpt lat="43.83645" lon="18.32691">
        <ele>503.727819</ele>
        <time>2022-05-18T00:12:12.725Z</time>
      </trkpt>
      <trkpt lat="43.83709" lon="18.32778">
        <ele>504.491462</ele>
        <time>2022-05-18T00:12:45.794Z</time>
      </trkpt>
      <trkpt lat="43.83618" lon="18.3289">
        <ele>505.151695</ele>
        <time>2022-05-18T00:13:28.545Z</time>
      </trkpt>
      <trkpt lat="43.83585" lon="18.32934">
        <ele>505.31539</ele>
        <time>2022-05-18T00:13:43.614Z</time>
      </trkpt>
      <trkpt lat="43.83793" lon="18.33188">
        <ele>505.875583</ele>
        <time>2022-05-18T00:15:12.028Z</time>
      </trkpt>
      <trkpt lat="43.83798" lon="18.33187">
        <ele>505.93641</ele>
        <time>2022-05-18T00:15:14.242Z</time>
      </trkpt>
      <trkpt lat="43.83824" lon="18.33154">
        <ele>506.324797</ele>
        <time>2022-05-18T00:15:27.959Z</time>
      </trkpt>
      <trkpt lat="43.83925" lon="18.33276">
        <ele>507.907943</ele>
        <time>2022-05-18T00:16:23.391Z</time>
      </trkpt>
      <trkpt lat="43.83994" lon="18.33349">
        <ele>509.139776</ele>
        <time>2022-05-18T00:16:58.905Z</time>
      </trkpt>
      <trkpt lat="43.83977" lon="18.33389">
        <ele>509.606637</ele>
        <time>2022-05-18T00:17:11.461Z</time>
      </trkpt>
      <trkpt lat="43.83968" lon="18.33411">
        <ele>509.866947</ele>
        <time>2022-05-18T00:17:18.358Z</time>
      </trkpt>
      <trkpt lat="43.83974" lon="18.3347">
        <ele>510.296836</ele>
        <time>2022-05-18T00:17:34.509Z</time>
      </trkpt>
      <trkpt lat="43.83937" lon="18.33547">
        <ele>510.910994</ele>
        <time>2022-05-18T00:17:59.293Z</time>
      </trkpt>
      <trkpt lat="43.83937" lon="18.33549">
        <ele>510.925553</ele>
        <time>2022-05-18T00:17:59.852Z</time>
      </trkpt>
      <trkpt lat="43.83998" lon="18.3361">
        <ele>511.625455</ele>
        <time>2022-05-18T00:18:26.789Z</time>
      </trkpt>
      <trkpt lat="43.8403" lon="18.33643">
        <ele>511.778125</ele>
        <time>2022-05-18T00:18:40.319Z</time>
      </trkpt>
      <trkpt lat="43.84112" lon="18.33744">
        <ele>512.20267</ele>
        <time>2022-05-18T00:19:16.802Z</time>
      </trkpt>
      <trkpt lat="43.84162" lon="18.33799">
        <ele>512.534195</ele>
        <time>2022-05-18T00:19:36.520Z</time>
      </trkpt>
      <trkpt lat="43.84202" lon="18.3387">
        <ele>512.955497</ele>
        <time>2022-05-18T00:19:58.849Z</time>
      </trkpt>
      <trkpt lat="43.84234" lon="18.33924">
        <ele>513.28018</ele>
        <time>2022-05-18T00:20:17.549Z</time>
      </trkpt>
      <trkpt lat="43.84333" lon="18.34102">
        <ele>513.643833</ele>
        <time>2022-05-18T00:21:16.347Z</time>
      </trkpt>
      <trkpt lat="43.84339" lon="18.34114">
        <ele>513.656267</ele>
        <time>2022-05-18T00:21:19.224Z</time>
      </trkpt>
      <trkpt lat="43.84345" lon="18.34124">
        <ele>513.667631</ele>
        <time>2022-05-18T00:21:21.630Z</time>
      </trkpt>
      <trkpt lat="43.84372" lon="18.34114">
        <ele>513.701897</ele>
        <time>2022-05-18T00:21:28.608Z</time>
      </trkpt>
      <trkpt lat="43.84398" lon="18.34106">
        <ele>513.196592</ele>
        <time>2022-05-18T00:21:34.987Z</time>
      </trkpt>
      <trkpt lat="43.84405" lon="18.34103">
        <ele>513.030271</ele>
        <time>2022-05-18T00:21:37.197Z</time>
      </trkpt>
      <trkpt lat="43.84414" lon="18.34099">
        <ele>512.840033</ele>
        <time>2022-05-18T00:21:39.519Z</time>
      </trkpt>
      <trkpt lat="43.845" lon="18.3407">
        <ele>511.051162</ele>
        <time>2022-05-18T00:22:00.279Z</time>
      </trkpt>
      <trkpt lat="43.84501" lon="18.34077">
        <ele>510.938334</ele>
        <time>2022-05-18T00:22:04.097Z</time>
      </trkpt>
      <trkpt lat="43.84504" lon="18.34087">
        <ele>510.781595</ele>
        <time>2022-05-18T00:22:05.892Z</time>
      </trkpt>
      <trkpt lat="43.84508" lon="18.34117">
        <ele>510.34206</ele>
        <time>2022-05-18T00:22:10.913Z</time>
      </trkpt>
      <trkpt lat="43.84601" lon="18.34729">
        <ele>508.291749</ele>
        <time>2022-05-18T00:24:27.021Z</time>
      </trkpt>
      <trkpt lat="43.84604" lon="18.34745">
        <ele>508.34317</ele>
        <time>2022-05-18T00:24:31.305Z</time>
      </trkpt>
      <trkpt lat="43.84698" lon="18.35378">
        <ele>510.570203</ele>
        <time>2022-05-18T00:27:20.863Z</time>
      </trkpt>
      <trkpt lat="43.847" lon="18.3539">
        <ele>510.537173</ele>
        <time>2022-05-18T00:27:23.830Z</time>
      </trkpt>
      <trkpt lat="43.84702" lon="18.35401">
        <ele>510.507828</ele>
        <time>2022-05-18T00:27:26.472Z</time>
      </trkpt>
      <trkpt lat="43.84753" lon="18.35724">
        <ele>509.860066</ele>
        <time>2022-05-18T00:28:37.063Z</time>
      </trkpt>
      <trkpt lat="43.84762" lon="18.35781">
        <ele>509.808389</ele>
        <time>2022-05-18T00:28:50.485Z</time>
      </trkpt>
      <trkpt lat="43.84763" lon="18.35784">
        <ele>509.805042</ele>
        <time>2022-05-18T00:28:51.391Z</time>
      </trkpt>
      <trkpt lat="43.84764" lon="18.35787">
        <ele>509.80265</ele>
        <time>2022-05-18T00:28:52.017Z</time>
      </trkpt>
      <trkpt lat="43.84773" lon="18.35846">
        <ele>509.760235</ele>
        <time>2022-05-18T00:29:06.948Z</time>
      </trkpt>
      <trkpt lat="43.84801" lon="18.36029">
        <ele>511.027624</ele>
        <time>2022-05-18T00:29:58.647Z</time>
      </trkpt>
      <trkpt lat="43.84802" lon="18.36056">
        <ele>511.212658</ele>
        <time>2022-05-18T00:30:06.365Z</time>
      </trkpt>
      <trkpt lat="43.84812" lon="18.36103">
        <ele>511.538387</ele>
        <time>2022-05-18T00:30:19.850Z</time>
      </trkpt>
      <trkpt lat="43.84867" lon="18.365">
        <ele>514.137972</ele>
        <time>2022-05-18T00:32:08.482Z</time>
      </trkpt>
      <trkpt lat="43.84893" lon="18.36658">
        <ele>515.058141</ele>
        <time>2022-05-18T00:32:52.879Z</time>
      </trkpt>
      <trkpt lat="43.84894" lon="18.36661">
        <ele>515.075137</ele>
        <time>2022-05-18T00:32:53.831Z</time>
      </trkpt>
      <trkpt lat="43.84897" lon="18.36671">
        <ele>515.127996</ele>
        <time>2022-05-18T00:32:56.673Z</time>
      </trkpt>
      <trkpt lat="43.84899" lon="18.36686">
        <ele>515.201654</ele>
        <time>2022-05-18T00:33:00.602Z</time>
      </trkpt>
      <trkpt lat="43.849" lon="18.36692">
        <ele>515.231282</ele>
        <time>2022-05-18T00:33:02.181Z</time>
      </trkpt>
      <trkpt lat="43.84905" lon="18.36707">
        <ele>515.317365</ele>
        <time>2022-05-18T00:33:06.664Z</time>
      </trkpt>
      <trkpt lat="43.84905" lon="18.36713">
        <ele>515.34553</ele>
        <time>2022-05-18T00:33:08.133Z</time>
      </trkpt>
      <trkpt lat="43.84964" lon="18.37082">
        <ele>516.686071</ele>
        <time>2022-05-18T00:34:38.645Z</time>
      </trkpt>
      <trkpt lat="43.84974" lon="18.37188">
        <ele>517.317234</ele>
        <time>2022-05-18T00:35:05.083Z</time>
      </trkpt>
      <trkpt lat="43.8498" lon="18.3726">
        <ele>517.739434</ele>
        <time>2022-05-18T00:35:24.174Z</time>
      </trkpt>
      <trkpt lat="43.84974" lon="18.3728">
        <ele>517.863606</ele>
        <time>2022-05-18T00:35:29.729Z</time>
      </trkpt>
      <trkpt lat="43.84975" lon="18.37288">
        <ele>517.9167</ele>
        <time>2022-05-18T00:35:32.120Z</time>
      </trkpt>
      <trkpt lat="43.84989" lon="18.37307">
        <ele>518.07651</ele>
        <time>2022-05-18T00:35:39.494Z</time>
      </trkpt>
      <trkpt lat="43.85045" lon="18.3749">
        <ele>519.561375</ele>
        <time>2022-05-18T00:36:33.990Z</time>
      </trkpt>
      <trkpt lat="43.85085" lon="18.3771">
        <ele>520.405273</ele>
        <time>2022-05-18T00:37:29.266Z</time>
      </trkpt>
      <trkpt lat="43.85106" lon="18.37794">
        <ele>520.647069</ele>
        <time>2022-05-18T00:37:49.316Z</time>
      </trkpt>
      <trkpt lat="43.85114" lon="18.3779">
        <ele>520.675722</ele>
        <time>2022-05-18T00:37:52.134Z</time>
      </trkpt>
      <trkpt lat="43.85126" lon="18.37825">
        <ele>520.767888</ele>
        <time>2022-05-18T00:38:01.108Z</time>
      </trkpt>
      <trkpt lat="43.85145" lon="18.37879">
        <ele>520.911208</ele>
        <time>2022-05-18T00:38:15.408Z</time>
      </trkpt>
      <trkpt lat="43.85149" lon="18.37896">
        <ele>520.953606</ele>
        <time>2022-05-18T00:38:19.778Z</time>
      </trkpt>
      <trkpt lat="43.85143" lon="18.37904">
        <ele>520.982426</ele>
        <time>2022-05-18T00:38:22.625Z</time>
      </trkpt>
      <trkpt lat="43.85123" lon="18.3791">
        <ele>521.047341</ele>
        <time>2022-05-18T00:38:29.223Z</time>
      </trkpt>
      <trkpt lat="43.85133" lon="18.37964">
        <ele>521.17768</ele>
        <time>2022-05-18T00:38:42.635Z</time>
      </trkpt>
      <trkpt lat="43.85146" lon="18.38135">
        <ele>521.648974</ele>
        <time>2022-05-18T00:39:24.209Z</time>
      </trkpt>
      <trkpt lat="43.85157" lon="18.38367">
        <ele>522.504685</ele>
        <time>2022-05-18T00:40:19.225Z</time>
      </trkpt>
      <trkpt lat="43.8516" lon="18.38456">
        <ele>522.877209</ele>
        <time>2022-05-18T00:40:42.336Z</time>
      </trkpt>
      <trkpt lat="43.85161" lon="18.38504">
        <ele>523.297521</ele>
        <time>2022-05-18T00:40:55.485Z</time>
      </trkpt>
      <trkpt lat="43.85162" lon="18.38547">
        <ele>523.715647</ele>
        <time>2022-05-18T00:41:07.373Z</time>
      </trkpt>
      <trkpt lat="43.85162" lon="18.38565">
        <ele>523.898162</ele>
        <time>2022-05-18T00:41:12.621Z</time>
      </trkpt>
      <trkpt lat="43.85161" lon="18.38578">
        <ele>524.027717</ele>
        <time>2022-05-18T00:41:16.511Z</time>
      </trkpt>
      <trkpt lat="43.8516" lon="18.38693">
        <ele>525.152454</ele>
        <time>2022-05-18T00:41:50.685Z</time>
      </trkpt>
      <trkpt lat="43.85164" lon="18.38771">
        <ele>525.729084</ele>
        <time>2022-05-18T00:42:13.420Z</time>
      </trkpt>
      <trkpt lat="43.85178" lon="18.38858">
        <ele>526.297235</ele>
        <time>2022-05-18T00:42:37.504Z</time>
      </trkpt>
      <trkpt lat="43.85211" lon="18.38973">
        <ele>527.029698</ele>
        <time>2022-05-18T00:43:09.183Z</time>
      </trkpt>
      <trkpt lat="43.85213" lon="18.38979">
        <ele>527.051208</ele>
        <time>2022-05-18T00:43:10.897Z</time>
      </trkpt>
      <trkpt lat="43.85216" lon="18.38988">
        <ele>527.08433</ele>
        <time>2022-05-18T00:43:13.488Z</time>
      </trkpt>
      <trkpt lat="43.85231" lon="18.39029">
        <ele>527.229507</ele>
        <time>2022-05-18T00:43:24.769Z</time>
      </trkpt>
      <trkpt lat="43.85281" lon="18.39174">
        <ele>527.74341</ele>
        <time>2022-05-18T00:44:05.187Z</time>
      </trkpt>
      <trkpt lat="43.853" lon="18.39283">
        <ele>528.196002</ele>
        <time>2022-05-18T00:44:33.886Z</time>
      </trkpt>
      <trkpt lat="43.85301" lon="18.39293">
        <ele>528.235602</ele>
        <time>2022-05-18T00:44:36.427Z</time>
      </trkpt>
      <trkpt lat="43.85303" lon="18.39306">
        <ele>528.291863</ele>
        <time>2022-05-18T00:44:40.036Z</time>
      </trkpt>
      <trkpt lat="43.85304" lon="18.39311">
        <ele>528.311016</ele>
        <time>2022-05-18T00:44:41.257Z</time>
      </trkpt>
      <trkpt lat="43.853" lon="18.39312">
        <ele>528.332579</ele>
        <time>2022-05-18T00:44:42.522Z</time>
      </trkpt>
      <trkpt lat="43.85375" lon="18.39853">
        <ele>530.715473</ele>
        <time>2022-05-18T00:46:59.735Z</time>
      </trkpt>
      <trkpt lat="43.85379" lon="18.40006">
        <ele>531.632819</ele>
        <time>2022-05-18T00:47:37.654Z</time>
      </trkpt>
      <trkpt lat="43.85374" lon="18.40085">
        <ele>532.189452</ele>
        <time>2022-05-18T00:47:58.974Z</time>
      </trkpt>
      <trkpt lat="43.85374" lon="18.40091">
        <ele>532.227038</ele>
        <time>2022-05-18T00:48:00.490Z</time>
      </trkpt>
      <trkpt lat="43.85382" lon="18.4009">
        <ele>532.304233</ele>
        <time>2022-05-18T00:48:06.000Z</time>
      </trkpt>
      <trkpt lat="43.85377" lon="18.40144">
        <ele>532.677978</ele>
        <time>2022-05-18T00:48:21.609Z</time>
      </trkpt>
      <trkpt lat="43.85352" lon="18.40378">
        <ele>534.650558</ele>
        <time>2022-05-18T00:49:28.945Z</time>
      </trkpt>
      <trkpt lat="43.85351" lon="18.40496">
        <ele>534.95652</ele>
        <time>2022-05-18T00:49:59.741Z</time>
      </trkpt>
      <trkpt lat="43.85354" lon="18.40547">
        <ele>535.040576</ele>
        <time>2022-05-18T00:50:12.208Z</time>
      </trkpt>
      <trkpt lat="43.85361" lon="18.40649">
        <ele>535.187708</ele>
        <time>2022-05-18T00:50:35.013Z</time>
      </trkpt>
      <trkpt lat="43.85388" lon="18.40725">
        <ele>535.033125</ele>
        <time>2022-05-18T00:50:52.808Z</time>
      </trkpt>
      <trkpt lat="43.85432" lon="18.40833">
        <ele>534.803969</ele>
        <time>2022-05-18T00:51:19.733Z</time>
      </trkpt>
      <trkpt lat="43.85464" lon="18.40908">
        <ele>534.845456</ele>
        <time>2022-05-18T00:51:38.325Z</time>
      </trkpt>
      <trkpt lat="43.85476" lon="18.40938">
        <ele>534.915491</ele>
        <time>2022-05-18T00:51:45.803Z</time>
      </trkpt>
      <trkpt lat="43.85504" lon="18.41001">
        <ele>535.062963</ele>
        <time>2022-05-18T00:52:03.390Z</time>
      </trkpt>
      <trkpt lat="43.85532" lon="18.41066">
        <ele>535.215888</ele>
        <time>2022-05-18T00:52:22.593Z</time>
      </trkpt>
      <trkpt lat="43.85553" lon="18.41116">
        <ele>535.557694</ele>
        <time>2022-05-18T00:52:37.412Z</time>
      </trkpt>
      <trkpt lat="43.85573" lon="18.41124">
        <ele>535.755233</ele>
        <time>2022-05-18T00:52:44.728Z</time>
      </trkpt>
      <trkpt lat="43.85581" lon="18.41124">
        <ele>535.833629</ele>
        <time>2022-05-18T00:52:47.731Z</time>
      </trkpt>
      <trkpt lat="43.85581" lon="18.41159">
        <ele>536.073069</ele>
        <time>2022-05-18T00:52:56.440Z</time>
      </trkpt>
      <trkpt lat="43.85592" lon="18.41211">
        <ele>536.451255</ele>
        <time>2022-05-18T00:53:10.718Z</time>
      </trkpt>
      <trkpt lat="43.85601" lon="18.41241">
        <ele>536.681238</ele>
        <time>2022-05-18T00:53:19.573Z</time>
      </trkpt>
      <trkpt lat="43.85616" lon="18.41283">
        <ele>537.025792</ele>
        <time>2022-05-18T00:53:32.653Z</time>
      </trkpt>
      <trkpt lat="43.85622" lon="18.41298">
        <ele>537.209898</ele>
        <time>2022-05-18T00:53:37.300Z</time>
      </trkpt>
      <trkpt lat="43.85613" lon="18.41302">
        <ele>537.354446</ele>
        <time>2022-05-18T00:53:41.089Z</time>
      </trkpt>
      <trkpt lat="43.85609" lon="18.41304">
        <ele>537.425226</ele>
        <time>2022-05-18T00:53:42.830Z</time>
      </trkpt>
      <trkpt lat="43.85592" lon="18.41313">
        <ele>537.708211</ele>
        <time>2022-05-18T00:53:49.301Z</time>
      </trkpt>
      <trkpt lat="43.85574" lon="18.41323">
        <ele>538.019624</ele>
        <time>2022-05-18T00:53:56.600Z</time>
      </trkpt>
      <trkpt lat="43.85571" lon="18.41325">
        <ele>538.066173</ele>
        <time>2022-05-18T00:53:57.722Z</time>
      </trkpt>
      <trkpt lat="43.85564" lon="18.4133">
        <ele>538.196673</ele>
        <time>2022-05-18T00:54:00.895Z</time>
      </trkpt>
      <trkpt lat="43.85554" lon="18.41342">
        <ele>538.404286</ele>
        <time>2022-05-18T00:54:05.902Z</time>
      </trkpt>
      <trkpt lat="43.85562" lon="18.41366">
        <ele>538.702106</ele>
        <time>2022-05-18T00:54:13.249Z</time>
      </trkpt>
      <trkpt lat="43.85574" lon="18.41452">
        <ele>539.701538</ele>
        <time>2022-05-18T00:54:39.913Z</time>
      </trkpt>
      <trkpt lat="43.85573" lon="18.41472">
        <ele>539.964092</ele>
        <time>2022-05-18T00:54:46.449Z</time>
      </trkpt>
      <trkpt lat="43.85565" lon="18.41497">
        <ele>540.365982</ele>
        <time>2022-05-18T00:54:55.144Z</time>
      </trkpt>
      <trkpt lat="43.85522" lon="18.41599">
        <ele>542.121183</ele>
        <time>2022-05-18T00:55:31.562Z</time>
      </trkpt>
      <trkpt lat="43.85512" lon="18.41623">
        <ele>542.521002</ele>
        <time>2022-05-18T00:55:39.854Z</time>
      </trkpt>
      <trkpt lat="43.85504" lon="18.41643">
        <ele>542.856204</ele>
        <time>2022-05-18T00:55:46.596Z</time>
      </trkpt>
      <trkpt lat="43.85474" lon="18.41719">
        <ele>543.524331</ele>
        <time>2022-05-18T00:56:13.332Z</time>
      </trkpt>
      <trkpt lat="43.85465" lon="18.41779">
        <ele>543.524331</ele>
        <time>2022-05-18T00:56:31.822Z</time>
      </trkpt>
      <trkpt lat="43.85482" lon="18.41844">
        <ele>543.524331</ele>
        <time>2022-05-18T00:56:50.995Z</time>
      </trkpt>
      <trkpt lat="43.85492" lon="18.4188">
        <ele>543.524331</ele>
        <time>2022-05-18T00:57:01.104Z</time>
      </trkpt>
      <trkpt lat="43.85518" lon="18.41976">
        <ele>543.524331</ele>
        <time>2022-05-18T00:57:28.268Z</time>
      </trkpt>
    </trkseg>
  </trk>
</gpx>